<?xml version="1.0" encoding="UTF-8" standalone="no" ?>
<gpx xmlns="http://www.topografix.com/GPX/1/1" xmlns:xsi="http://www.w3.org/2001/XMLSchema-instance" xsi:schemaLocation="http://www.topografix.com/GPX/1/1 http://www.topografix.com/GPX/1/1/gpx.xsd" version="1.1" creator="VisuGPX - https://www.visugpx.com">
  <metadata>
    <name>Sardaigne Corse</name>
    <desc><![CDATA[En octobre 2017 au départ de Portisco
6 membres d'équipage avec
Julien Bruno Frédéric Benjamin Sébastien 
embarqué sur Dufour 412]]></desc>
  </metadata>
  <trk>
    <name><![CDATA[Tracé actuel: 11 OCT 2017 11:58]]></name>
    <trkseg>
      <trkpt lat="41.38931" lon="9.15944">
        <ele>2.06</ele>
        <time>2017-10-11T10:58:28Z</time>
      </trkpt>
      <trkpt lat="41.38934" lon="9.15886">
        <ele>0.62</ele>
        <time>2017-10-11T10:58:54Z</time>
      </trkpt>
      <trkpt lat="41.38928" lon="9.15799">
        <ele>0.62</ele>
        <time>2017-10-11T10:59:24Z</time>
      </trkpt>
      <trkpt lat="41.38931" lon="9.15755">
        <ele>1.58</ele>
        <time>2017-10-11T10:59:50Z</time>
      </trkpt>
      <trkpt lat="41.38934" lon="9.15712">
        <ele>3.98</ele>
        <time>2017-10-11T11:00:17Z</time>
      </trkpt>
      <trkpt lat="41.38936" lon="9.15673">
        <ele>3.02</ele>
        <time>2017-10-11T11:00:44Z</time>
      </trkpt>
      <trkpt lat="41.3894" lon="9.15625">
        <ele>1.58</ele>
        <time>2017-10-11T11:01:11Z</time>
      </trkpt>
      <trkpt lat="41.38948" lon="9.15549">
        <ele>0.14</ele>
        <time>2017-10-11T11:01:45Z</time>
      </trkpt>
      <trkpt lat="41.3895" lon="9.15474">
        <ele>1.58</ele>
        <time>2017-10-11T11:02:15Z</time>
      </trkpt>
      <trkpt lat="41.38959" lon="9.15411">
        <ele>1.1</ele>
        <time>2017-10-11T11:02:41Z</time>
      </trkpt>
      <trkpt lat="41.38955" lon="9.15355">
        <ele>2.06</ele>
        <time>2017-10-11T11:03:04Z</time>
      </trkpt>
      <trkpt lat="41.38957" lon="9.15305">
        <ele>1.58</ele>
        <time>2017-10-11T11:03:29Z</time>
      </trkpt>
      <trkpt lat="41.38956" lon="9.15259">
        <ele>2.54</ele>
        <time>2017-10-11T11:04:00Z</time>
      </trkpt>
      <trkpt lat="41.38946" lon="9.15209">
        <ele>2.06</ele>
        <time>2017-10-11T11:04:26Z</time>
      </trkpt>
      <trkpt lat="41.3894" lon="9.15142">
        <ele>1.1</ele>
        <time>2017-10-11T11:04:53Z</time>
      </trkpt>
      <trkpt lat="41.38932" lon="9.15076">
        <ele>1.1</ele>
        <time>2017-10-11T11:05:19Z</time>
      </trkpt>
      <trkpt lat="41.38914" lon="9.14997">
        <ele>1.1</ele>
        <time>2017-10-11T11:05:50Z</time>
      </trkpt>
      <trkpt lat="41.38896" lon="9.14932">
        <ele>2.54</ele>
        <time>2017-10-11T11:06:17Z</time>
      </trkpt>
      <trkpt lat="41.38881" lon="9.14872">
        <ele>2.54</ele>
        <time>2017-10-11T11:06:41Z</time>
      </trkpt>
      <trkpt lat="41.38854" lon="9.14823">
        <ele>1.58</ele>
        <time>2017-10-11T11:07:05Z</time>
      </trkpt>
      <trkpt lat="41.38822" lon="9.14789">
        <ele>2.06</ele>
        <time>2017-10-11T11:07:28Z</time>
      </trkpt>
      <trkpt lat="41.38783" lon="9.14754">
        <ele>2.06</ele>
        <time>2017-10-11T11:07:53Z</time>
      </trkpt>
      <trkpt lat="41.38745" lon="9.14721">
        <ele>1.1</ele>
        <time>2017-10-11T11:08:17Z</time>
      </trkpt>
      <trkpt lat="41.38706" lon="9.14694">
        <ele>-0.34</ele>
        <time>2017-10-11T11:08:40Z</time>
      </trkpt>
      <trkpt lat="41.38666" lon="9.14677">
        <ele>-0.82</ele>
        <time>2017-10-11T11:09:02Z</time>
      </trkpt>
      <trkpt lat="41.38628" lon="9.14659">
        <ele>-0.34</ele>
        <time>2017-10-11T11:09:23Z</time>
      </trkpt>
      <trkpt lat="41.38596" lon="9.14646">
        <ele>-0.34</ele>
        <time>2017-10-11T11:09:40Z</time>
      </trkpt>
      <trkpt lat="41.38561" lon="9.14637">
        <ele>0.14</ele>
        <time>2017-10-11T11:09:59Z</time>
      </trkpt>
      <trkpt lat="41.38529" lon="9.14629">
        <ele>0.14</ele>
        <time>2017-10-11T11:10:16Z</time>
      </trkpt>
      <trkpt lat="41.385" lon="9.14613">
        <ele>1.1</ele>
        <time>2017-10-11T11:10:33Z</time>
      </trkpt>
      <trkpt lat="41.38473" lon="9.14581">
        <ele>1.58</ele>
        <time>2017-10-11T11:10:53Z</time>
      </trkpt>
      <trkpt lat="41.38445" lon="9.14554">
        <ele>1.58</ele>
        <time>2017-10-11T11:11:11Z</time>
      </trkpt>
      <trkpt lat="41.38419" lon="9.14564">
        <ele>-0.34</ele>
        <time>2017-10-11T11:11:26Z</time>
      </trkpt>
      <trkpt lat="41.3839" lon="9.14595">
        <ele>1.1</ele>
        <time>2017-10-11T11:11:45Z</time>
      </trkpt>
      <trkpt lat="41.38363" lon="9.1462">
        <ele>0.14</ele>
        <time>2017-10-11T11:12:03Z</time>
      </trkpt>
      <trkpt lat="41.38343" lon="9.14634">
        <ele>0.62</ele>
        <time>2017-10-11T11:12:22Z</time>
      </trkpt>
      <trkpt lat="41.38327" lon="9.1464">
        <ele>1.1</ele>
        <time>2017-10-11T11:12:40Z</time>
      </trkpt>
      <trkpt lat="41.38316" lon="9.1465">
        <ele>1.1</ele>
        <time>2017-10-11T11:12:57Z</time>
      </trkpt>
      <trkpt lat="41.38298" lon="9.14662">
        <ele>-0.34</ele>
        <time>2017-10-11T11:13:15Z</time>
      </trkpt>
      <trkpt lat="41.3827" lon="9.14677">
        <ele>1.1</ele>
        <time>2017-10-11T11:13:34Z</time>
      </trkpt>
      <trkpt lat="41.38242" lon="9.14703">
        <ele>0.14</ele>
        <time>2017-10-11T11:13:54Z</time>
      </trkpt>
      <trkpt lat="41.38223" lon="9.14719">
        <ele>-0.34</ele>
        <time>2017-10-11T11:14:07Z</time>
      </trkpt>
      <trkpt lat="41.3819" lon="9.14723">
        <ele>0.62</ele>
        <time>2017-10-11T11:14:27Z</time>
      </trkpt>
      <trkpt lat="41.38158" lon="9.14726">
        <ele>0.14</ele>
        <time>2017-10-11T11:14:48Z</time>
      </trkpt>
      <trkpt lat="41.38135" lon="9.14727">
        <ele>0.14</ele>
        <time>2017-10-11T11:15:05Z</time>
      </trkpt>
      <trkpt lat="41.38121" lon="9.14746">
        <ele>0.14</ele>
        <time>2017-10-11T11:15:21Z</time>
      </trkpt>
      <trkpt lat="41.38115" lon="9.14773">
        <ele>1.58</ele>
        <time>2017-10-11T11:15:43Z</time>
      </trkpt>
      <trkpt lat="41.38109" lon="9.1479">
        <ele>1.58</ele>
        <time>2017-10-11T11:15:59Z</time>
      </trkpt>
      <trkpt lat="41.38105" lon="9.14804">
        <ele>1.58</ele>
        <time>2017-10-11T11:16:16Z</time>
      </trkpt>
      <trkpt lat="41.38101" lon="9.1482">
        <ele>1.58</ele>
        <time>2017-10-11T11:16:37Z</time>
      </trkpt>
      <trkpt lat="41.38099" lon="9.14827">
        <ele>1.1</ele>
        <time>2017-10-11T11:16:54Z</time>
      </trkpt>
      <trkpt lat="41.38099" lon="9.14836">
        <ele>0.62</ele>
        <time>2017-10-11T11:17:19Z</time>
      </trkpt>
      <trkpt lat="41.38105" lon="9.14847">
        <ele>0.14</ele>
        <time>2017-10-11T11:17:40Z</time>
      </trkpt>
      <trkpt lat="41.38113" lon="9.14859">
        <ele>0.62</ele>
        <time>2017-10-11T11:18:01Z</time>
      </trkpt>
      <trkpt lat="41.38116" lon="9.14868">
        <ele>-0.34</ele>
        <time>2017-10-11T11:18:21Z</time>
      </trkpt>
      <trkpt lat="41.38118" lon="9.14872">
        <ele>-0.82</ele>
        <time>2017-10-11T11:18:27Z</time>
      </trkpt>
      <trkpt lat="41.38115" lon="9.14892">
        <ele>0.14</ele>
        <time>2017-10-11T11:18:47Z</time>
      </trkpt>
      <trkpt lat="41.38112" lon="9.14895">
        <ele>0.14</ele>
        <time>2017-10-11T11:19:06Z</time>
      </trkpt>
      <trkpt lat="41.38111" lon="9.14898">
        <ele>0.14</ele>
        <time>2017-10-11T11:19:22Z</time>
      </trkpt>
      <trkpt lat="41.38112" lon="9.14905">
        <ele>0.14</ele>
        <time>2017-10-11T11:19:41Z</time>
      </trkpt>
      <trkpt lat="41.38113" lon="9.14923">
        <ele>1.1</ele>
        <time>2017-10-11T11:20:03Z</time>
      </trkpt>
      <trkpt lat="41.38114" lon="9.14945">
        <ele>0.62</ele>
        <time>2017-10-11T11:20:23Z</time>
      </trkpt>
      <trkpt lat="41.38119" lon="9.14973">
        <ele>0.14</ele>
        <time>2017-10-11T11:20:43Z</time>
      </trkpt>
      <trkpt lat="41.3813" lon="9.14996">
        <ele>0.62</ele>
        <time>2017-10-11T11:21:00Z</time>
      </trkpt>
      <trkpt lat="41.38145" lon="9.15027">
        <ele>-0.34</ele>
        <time>2017-10-11T11:21:22Z</time>
      </trkpt>
      <trkpt lat="41.38155" lon="9.15058">
        <ele>-0.34</ele>
        <time>2017-10-11T11:21:43Z</time>
      </trkpt>
      <trkpt lat="41.38164" lon="9.15095">
        <ele>0.14</ele>
        <time>2017-10-11T11:22:07Z</time>
      </trkpt>
      <trkpt lat="41.38166" lon="9.15126">
        <ele>0.14</ele>
        <time>2017-10-11T11:22:26Z</time>
      </trkpt>
      <trkpt lat="41.38164" lon="9.15157">
        <ele>-1.3</ele>
        <time>2017-10-11T11:22:46Z</time>
      </trkpt>
      <trkpt lat="41.38161" lon="9.15186">
        <ele>-0.34</ele>
        <time>2017-10-11T11:23:04Z</time>
      </trkpt>
      <trkpt lat="41.38157" lon="9.15205">
        <ele>-0.34</ele>
        <time>2017-10-11T11:23:22Z</time>
      </trkpt>
      <trkpt lat="41.38168" lon="9.15222">
        <ele>-0.34</ele>
        <time>2017-10-11T11:23:43Z</time>
      </trkpt>
      <trkpt lat="41.38177" lon="9.15256">
        <ele>-0.34</ele>
        <time>2017-10-11T11:24:08Z</time>
      </trkpt>
      <trkpt lat="41.38168" lon="9.1528">
        <ele>-0.34</ele>
        <time>2017-10-11T11:24:24Z</time>
      </trkpt>
      <trkpt lat="41.38152" lon="9.15298">
        <ele>-0.82</ele>
        <time>2017-10-11T11:24:41Z</time>
      </trkpt>
      <trkpt lat="41.38129" lon="9.15317">
        <ele>-1.3</ele>
        <time>2017-10-11T11:25:03Z</time>
      </trkpt>
      <trkpt lat="41.3811" lon="9.15335">
        <ele>-0.82</ele>
        <time>2017-10-11T11:25:21Z</time>
      </trkpt>
      <trkpt lat="41.38106" lon="9.15367">
        <ele>-0.82</ele>
        <time>2017-10-11T11:25:39Z</time>
      </trkpt>
      <trkpt lat="41.38096" lon="9.15396">
        <ele>-0.82</ele>
        <time>2017-10-11T11:25:56Z</time>
      </trkpt>
      <trkpt lat="41.38079" lon="9.15426">
        <ele>-0.82</ele>
        <time>2017-10-11T11:26:17Z</time>
      </trkpt>
      <trkpt lat="41.3806" lon="9.15447">
        <ele>0.14</ele>
        <time>2017-10-11T11:26:36Z</time>
      </trkpt>
      <trkpt lat="41.38041" lon="9.15466">
        <ele>0.14</ele>
        <time>2017-10-11T11:26:53Z</time>
      </trkpt>
      <trkpt lat="41.38021" lon="9.15489">
        <ele>0.62</ele>
        <time>2017-10-11T11:27:13Z</time>
      </trkpt>
      <trkpt lat="41.38006" lon="9.15493">
        <ele>0.14</ele>
        <time>2017-10-11T11:27:32Z</time>
      </trkpt>
      <trkpt lat="41.37992" lon="9.15495">
        <ele>-0.82</ele>
        <time>2017-10-11T11:27:54Z</time>
      </trkpt>
      <trkpt lat="41.37986" lon="9.15497">
        <ele>-1.79</ele>
        <time>2017-10-11T11:28:11Z</time>
      </trkpt>
      <trkpt lat="41.3798" lon="9.15493">
        <ele>-1.3</ele>
        <time>2017-10-11T11:28:26Z</time>
      </trkpt>
      <trkpt lat="41.37962" lon="9.15467">
        <ele>-0.34</ele>
        <time>2017-10-11T11:28:48Z</time>
      </trkpt>
      <trkpt lat="41.37936" lon="9.15454">
        <ele>-0.34</ele>
        <time>2017-10-11T11:29:07Z</time>
      </trkpt>
      <trkpt lat="41.37902" lon="9.15437">
        <ele>-0.34</ele>
        <time>2017-10-11T11:29:29Z</time>
      </trkpt>
      <trkpt lat="41.37864" lon="9.15413">
        <ele>-0.34</ele>
        <time>2017-10-11T11:29:52Z</time>
      </trkpt>
      <trkpt lat="41.37829" lon="9.15397">
        <ele>-1.3</ele>
        <time>2017-10-11T11:30:11Z</time>
      </trkpt>
      <trkpt lat="41.37792" lon="9.15384">
        <ele>0.62</ele>
        <time>2017-10-11T11:30:33Z</time>
      </trkpt>
      <trkpt lat="41.3776" lon="9.1536">
        <ele>-0.82</ele>
        <time>2017-10-11T11:30:54Z</time>
      </trkpt>
      <trkpt lat="41.37724" lon="9.15345">
        <ele>-0.82</ele>
        <time>2017-10-11T11:31:14Z</time>
      </trkpt>
      <trkpt lat="41.37694" lon="9.15339">
        <ele>0.14</ele>
        <time>2017-10-11T11:31:34Z</time>
      </trkpt>
      <trkpt lat="41.37668" lon="9.15321">
        <ele>-0.34</ele>
        <time>2017-10-11T11:31:52Z</time>
      </trkpt>
      <trkpt lat="41.37634" lon="9.15296">
        <ele>-0.82</ele>
        <time>2017-10-11T11:32:12Z</time>
      </trkpt>
      <trkpt lat="41.37598" lon="9.15265">
        <ele>-0.82</ele>
        <time>2017-10-11T11:32:32Z</time>
      </trkpt>
      <trkpt lat="41.37558" lon="9.15232">
        <ele>-0.34</ele>
        <time>2017-10-11T11:32:54Z</time>
      </trkpt>
      <trkpt lat="41.37518" lon="9.15202">
        <ele>-1.3</ele>
        <time>2017-10-11T11:33:14Z</time>
      </trkpt>
      <trkpt lat="41.37474" lon="9.15176">
        <ele>-1.3</ele>
        <time>2017-10-11T11:33:35Z</time>
      </trkpt>
      <trkpt lat="41.37434" lon="9.15159">
        <ele>-1.3</ele>
        <time>2017-10-11T11:33:55Z</time>
      </trkpt>
      <trkpt lat="41.37397" lon="9.15139">
        <ele>0.14</ele>
        <time>2017-10-11T11:34:17Z</time>
      </trkpt>
      <trkpt lat="41.37365" lon="9.15118">
        <ele>0.14</ele>
        <time>2017-10-11T11:34:36Z</time>
      </trkpt>
      <trkpt lat="41.37329" lon="9.15088">
        <ele>-1.3</ele>
        <time>2017-10-11T11:34:57Z</time>
      </trkpt>
      <trkpt lat="41.37288" lon="9.15056">
        <ele>-1.3</ele>
        <time>2017-10-11T11:35:19Z</time>
      </trkpt>
      <trkpt lat="41.37249" lon="9.15024">
        <ele>-1.3</ele>
        <time>2017-10-11T11:35:40Z</time>
      </trkpt>
      <trkpt lat="41.37214" lon="9.14999">
        <ele>-2.75</ele>
        <time>2017-10-11T11:35:59Z</time>
      </trkpt>
      <trkpt lat="41.37177" lon="9.14974">
        <ele>-3.71</ele>
        <time>2017-10-11T11:36:20Z</time>
      </trkpt>
      <trkpt lat="41.37133" lon="9.14944">
        <ele>-4.19</ele>
        <time>2017-10-11T11:36:43Z</time>
      </trkpt>
      <trkpt lat="41.37094" lon="9.14917">
        <ele>-2.27</ele>
        <time>2017-10-11T11:37:03Z</time>
      </trkpt>
      <trkpt lat="41.37054" lon="9.14891">
        <ele>-2.27</ele>
        <time>2017-10-11T11:37:23Z</time>
      </trkpt>
      <trkpt lat="41.37016" lon="9.14874">
        <ele>-0.82</ele>
        <time>2017-10-11T11:37:42Z</time>
      </trkpt>
      <trkpt lat="41.3698" lon="9.14864">
        <ele>0.14</ele>
        <time>2017-10-11T11:38:02Z</time>
      </trkpt>
      <trkpt lat="41.36945" lon="9.14849">
        <ele>0.62</ele>
        <time>2017-10-11T11:38:23Z</time>
      </trkpt>
      <trkpt lat="41.36908" lon="9.1483">
        <ele>-0.34</ele>
        <time>2017-10-11T11:38:44Z</time>
      </trkpt>
      <trkpt lat="41.36873" lon="9.14812">
        <ele>-0.82</ele>
        <time>2017-10-11T11:39:05Z</time>
      </trkpt>
      <trkpt lat="41.36839" lon="9.14792">
        <ele>-0.82</ele>
        <time>2017-10-11T11:39:26Z</time>
      </trkpt>
      <trkpt lat="41.36807" lon="9.14772">
        <ele>-0.34</ele>
        <time>2017-10-11T11:39:47Z</time>
      </trkpt>
      <trkpt lat="41.36779" lon="9.14755">
        <ele>-0.34</ele>
        <time>2017-10-11T11:40:05Z</time>
      </trkpt>
      <trkpt lat="41.3675" lon="9.14737">
        <ele>-0.82</ele>
        <time>2017-10-11T11:40:23Z</time>
      </trkpt>
      <trkpt lat="41.36719" lon="9.14722">
        <ele>0.14</ele>
        <time>2017-10-11T11:40:43Z</time>
      </trkpt>
      <trkpt lat="41.36681" lon="9.14708">
        <ele>-0.34</ele>
        <time>2017-10-11T11:41:07Z</time>
      </trkpt>
      <trkpt lat="41.36647" lon="9.14701">
        <ele>-0.34</ele>
        <time>2017-10-11T11:41:29Z</time>
      </trkpt>
      <trkpt lat="41.36615" lon="9.14699">
        <ele>0.14</ele>
        <time>2017-10-11T11:41:52Z</time>
      </trkpt>
      <trkpt lat="41.36586" lon="9.14693">
        <ele>0.14</ele>
        <time>2017-10-11T11:42:13Z</time>
      </trkpt>
      <trkpt lat="41.36549" lon="9.14683">
        <ele>-0.82</ele>
        <time>2017-10-11T11:42:40Z</time>
      </trkpt>
      <trkpt lat="41.3652" lon="9.14673">
        <ele>0.14</ele>
        <time>2017-10-11T11:43:01Z</time>
      </trkpt>
      <trkpt lat="41.36485" lon="9.1466">
        <ele>0.62</ele>
        <time>2017-10-11T11:43:22Z</time>
      </trkpt>
      <trkpt lat="41.36451" lon="9.14653">
        <ele>1.1</ele>
        <time>2017-10-11T11:43:43Z</time>
      </trkpt>
      <trkpt lat="41.36424" lon="9.14648">
        <ele>1.58</ele>
        <time>2017-10-11T11:44:04Z</time>
      </trkpt>
      <trkpt lat="41.36394" lon="9.14637">
        <ele>2.54</ele>
        <time>2017-10-11T11:44:27Z</time>
      </trkpt>
      <trkpt lat="41.36363" lon="9.1463">
        <ele>1.58</ele>
        <time>2017-10-11T11:44:50Z</time>
      </trkpt>
      <trkpt lat="41.36339" lon="9.14627">
        <ele>0.14</ele>
        <time>2017-10-11T11:45:10Z</time>
      </trkpt>
      <trkpt lat="41.36312" lon="9.14618">
        <ele>-0.82</ele>
        <time>2017-10-11T11:45:31Z</time>
      </trkpt>
      <trkpt lat="41.36281" lon="9.14609">
        <ele>-0.34</ele>
        <time>2017-10-11T11:45:56Z</time>
      </trkpt>
      <trkpt lat="41.36249" lon="9.14595">
        <ele>1.58</ele>
        <time>2017-10-11T11:46:20Z</time>
      </trkpt>
      <trkpt lat="41.36222" lon="9.1459">
        <ele>0.14</ele>
        <time>2017-10-11T11:46:38Z</time>
      </trkpt>
      <trkpt lat="41.36194" lon="9.14586">
        <ele>0.62</ele>
        <time>2017-10-11T11:46:57Z</time>
      </trkpt>
      <trkpt lat="41.36162" lon="9.14584">
        <ele>0.62</ele>
        <time>2017-10-11T11:47:19Z</time>
      </trkpt>
      <trkpt lat="41.36134" lon="9.14577">
        <ele>1.58</ele>
        <time>2017-10-11T11:47:41Z</time>
      </trkpt>
      <trkpt lat="41.36103" lon="9.14573">
        <ele>0.62</ele>
        <time>2017-10-11T11:48:04Z</time>
      </trkpt>
      <trkpt lat="41.36071" lon="9.14569">
        <ele>0.62</ele>
        <time>2017-10-11T11:48:27Z</time>
      </trkpt>
      <trkpt lat="41.36038" lon="9.14569">
        <ele>0.14</ele>
        <time>2017-10-11T11:48:48Z</time>
      </trkpt>
      <trkpt lat="41.36007" lon="9.14569">
        <ele>0.14</ele>
        <time>2017-10-11T11:49:09Z</time>
      </trkpt>
      <trkpt lat="41.35981" lon="9.14566">
        <ele>0.62</ele>
        <time>2017-10-11T11:49:26Z</time>
      </trkpt>
      <trkpt lat="41.35954" lon="9.14565">
        <ele>0.14</ele>
        <time>2017-10-11T11:49:45Z</time>
      </trkpt>
      <trkpt lat="41.35928" lon="9.14561">
        <ele>0.62</ele>
        <time>2017-10-11T11:50:05Z</time>
      </trkpt>
      <trkpt lat="41.35903" lon="9.14563">
        <ele>0.14</ele>
        <time>2017-10-11T11:50:26Z</time>
      </trkpt>
      <trkpt lat="41.35881" lon="9.14563">
        <ele>0.14</ele>
        <time>2017-10-11T11:50:42Z</time>
      </trkpt>
      <trkpt lat="41.35875" lon="9.14583">
        <ele>1.1</ele>
        <time>2017-10-11T11:50:57Z</time>
      </trkpt>
      <trkpt lat="41.35886" lon="9.1461">
        <ele>1.58</ele>
        <time>2017-10-11T11:51:17Z</time>
      </trkpt>
      <trkpt lat="41.35888" lon="9.14636">
        <ele>1.58</ele>
        <time>2017-10-11T11:51:37Z</time>
      </trkpt>
      <trkpt lat="41.3589" lon="9.14662">
        <ele>1.1</ele>
        <time>2017-10-11T11:51:56Z</time>
      </trkpt>
      <trkpt lat="41.35897" lon="9.14692">
        <ele>1.1</ele>
        <time>2017-10-11T11:52:18Z</time>
      </trkpt>
      <trkpt lat="41.35906" lon="9.14725">
        <ele>-0.34</ele>
        <time>2017-10-11T11:52:41Z</time>
      </trkpt>
      <trkpt lat="41.35913" lon="9.14753">
        <ele>1.1</ele>
        <time>2017-10-11T11:53:01Z</time>
      </trkpt>
      <trkpt lat="41.35921" lon="9.14783">
        <ele>1.1</ele>
        <time>2017-10-11T11:53:22Z</time>
      </trkpt>
      <trkpt lat="41.35931" lon="9.14813">
        <ele>1.1</ele>
        <time>2017-10-11T11:53:42Z</time>
      </trkpt>
      <trkpt lat="41.3594" lon="9.1485">
        <ele>1.58</ele>
        <time>2017-10-11T11:54:06Z</time>
      </trkpt>
      <trkpt lat="41.3595" lon="9.14882">
        <ele>2.06</ele>
        <time>2017-10-11T11:54:27Z</time>
      </trkpt>
      <trkpt lat="41.3596" lon="9.14921">
        <ele>1.58</ele>
        <time>2017-10-11T11:54:51Z</time>
      </trkpt>
      <trkpt lat="41.35966" lon="9.14957">
        <ele>1.1</ele>
        <time>2017-10-11T11:55:13Z</time>
      </trkpt>
      <trkpt lat="41.35976" lon="9.14997">
        <ele>1.58</ele>
        <time>2017-10-11T11:55:38Z</time>
      </trkpt>
      <trkpt lat="41.35985" lon="9.15034">
        <ele>2.06</ele>
        <time>2017-10-11T11:56:00Z</time>
      </trkpt>
      <trkpt lat="41.35994" lon="9.15071">
        <ele>2.06</ele>
        <time>2017-10-11T11:56:22Z</time>
      </trkpt>
      <trkpt lat="41.36005" lon="9.15115">
        <ele>1.58</ele>
        <time>2017-10-11T11:56:46Z</time>
      </trkpt>
      <trkpt lat="41.36011" lon="9.15153">
        <ele>1.58</ele>
        <time>2017-10-11T11:57:05Z</time>
      </trkpt>
      <trkpt lat="41.36019" lon="9.1519">
        <ele>2.06</ele>
        <time>2017-10-11T11:57:24Z</time>
      </trkpt>
      <trkpt lat="41.36027" lon="9.1523">
        <ele>2.54</ele>
        <time>2017-10-11T11:57:45Z</time>
      </trkpt>
      <trkpt lat="41.36033" lon="9.15267">
        <ele>2.54</ele>
        <time>2017-10-11T11:58:04Z</time>
      </trkpt>
      <trkpt lat="41.36036" lon="9.153">
        <ele>3.02</ele>
        <time>2017-10-11T11:58:21Z</time>
      </trkpt>
      <trkpt lat="41.3604" lon="9.15332">
        <ele>2.54</ele>
        <time>2017-10-11T11:58:39Z</time>
      </trkpt>
      <trkpt lat="41.36046" lon="9.15368">
        <ele>3.02</ele>
        <time>2017-10-11T11:59:00Z</time>
      </trkpt>
      <trkpt lat="41.36051" lon="9.15402">
        <ele>3.02</ele>
        <time>2017-10-11T11:59:20Z</time>
      </trkpt>
      <trkpt lat="41.36057" lon="9.15435">
        <ele>3.02</ele>
        <time>2017-10-11T11:59:41Z</time>
      </trkpt>
      <trkpt lat="41.36061" lon="9.1546">
        <ele>3.98</ele>
        <time>2017-10-11T12:00:00Z</time>
      </trkpt>
      <trkpt lat="41.36064" lon="9.15482">
        <ele>3.02</ele>
        <time>2017-10-11T12:00:19Z</time>
      </trkpt>
      <trkpt lat="41.36068" lon="9.15508">
        <ele>2.54</ele>
        <time>2017-10-11T12:00:42Z</time>
      </trkpt>
      <trkpt lat="41.36078" lon="9.15533">
        <ele>3.02</ele>
        <time>2017-10-11T12:01:02Z</time>
      </trkpt>
      <trkpt lat="41.36083" lon="9.15567">
        <ele>2.06</ele>
        <time>2017-10-11T12:01:26Z</time>
      </trkpt>
      <trkpt lat="41.36085" lon="9.15593">
        <ele>2.54</ele>
        <time>2017-10-11T12:01:49Z</time>
      </trkpt>
      <trkpt lat="41.36085" lon="9.15595">
        <ele>2.54</ele>
        <time>2017-10-11T12:01:50Z</time>
      </trkpt>
      <trkpt lat="41.36105" lon="9.15618">
        <ele>3.5</ele>
        <time>2017-10-11T12:02:11Z</time>
      </trkpt>
      <trkpt lat="41.36119" lon="9.15647">
        <ele>3.98</ele>
        <time>2017-10-11T12:02:28Z</time>
      </trkpt>
      <trkpt lat="41.36127" lon="9.15691">
        <ele>3.02</ele>
        <time>2017-10-11T12:02:51Z</time>
      </trkpt>
      <trkpt lat="41.36133" lon="9.15726">
        <ele>2.54</ele>
        <time>2017-10-11T12:03:10Z</time>
      </trkpt>
      <trkpt lat="41.3614" lon="9.1576">
        <ele>2.54</ele>
        <time>2017-10-11T12:03:30Z</time>
      </trkpt>
      <trkpt lat="41.36149" lon="9.15795">
        <ele>2.54</ele>
        <time>2017-10-11T12:03:53Z</time>
      </trkpt>
      <trkpt lat="41.36159" lon="9.15832">
        <ele>3.02</ele>
        <time>2017-10-11T12:04:16Z</time>
      </trkpt>
      <trkpt lat="41.36168" lon="9.15869">
        <ele>3.02</ele>
        <time>2017-10-11T12:04:38Z</time>
      </trkpt>
      <trkpt lat="41.36173" lon="9.15898">
        <ele>3.5</ele>
        <time>2017-10-11T12:04:58Z</time>
      </trkpt>
      <trkpt lat="41.36187" lon="9.15926">
        <ele>3.02</ele>
        <time>2017-10-11T12:05:18Z</time>
      </trkpt>
      <trkpt lat="41.36196" lon="9.15955">
        <ele>3.02</ele>
        <time>2017-10-11T12:05:34Z</time>
      </trkpt>
      <trkpt lat="41.36204" lon="9.15996">
        <ele>3.02</ele>
        <time>2017-10-11T12:05:57Z</time>
      </trkpt>
      <trkpt lat="41.36211" lon="9.16033">
        <ele>2.54</ele>
        <time>2017-10-11T12:06:22Z</time>
      </trkpt>
      <trkpt lat="41.36221" lon="9.16062">
        <ele>2.06</ele>
        <time>2017-10-11T12:06:44Z</time>
      </trkpt>
      <trkpt lat="41.36232" lon="9.16093">
        <ele>2.06</ele>
        <time>2017-10-11T12:07:06Z</time>
      </trkpt>
      <trkpt lat="41.36236" lon="9.16121">
        <ele>3.02</ele>
        <time>2017-10-11T12:07:28Z</time>
      </trkpt>
      <trkpt lat="41.36248" lon="9.16143">
        <ele>3.02</ele>
        <time>2017-10-11T12:07:46Z</time>
      </trkpt>
      <trkpt lat="41.36256" lon="9.16171">
        <ele>3.02</ele>
        <time>2017-10-11T12:08:05Z</time>
      </trkpt>
      <trkpt lat="41.36265" lon="9.16197">
        <ele>3.5</ele>
        <time>2017-10-11T12:08:24Z</time>
      </trkpt>
      <trkpt lat="41.36277" lon="9.16228">
        <ele>3.02</ele>
        <time>2017-10-11T12:08:45Z</time>
      </trkpt>
      <trkpt lat="41.36285" lon="9.16259">
        <ele>3.02</ele>
        <time>2017-10-11T12:09:07Z</time>
      </trkpt>
      <trkpt lat="41.36296" lon="9.16288">
        <ele>3.02</ele>
        <time>2017-10-11T12:09:29Z</time>
      </trkpt>
      <trkpt lat="41.36301" lon="9.16317">
        <ele>3.02</ele>
        <time>2017-10-11T12:09:52Z</time>
      </trkpt>
      <trkpt lat="41.3631" lon="9.16341">
        <ele>3.02</ele>
        <time>2017-10-11T12:10:14Z</time>
      </trkpt>
      <trkpt lat="41.36326" lon="9.16365">
        <ele>3.02</ele>
        <time>2017-10-11T12:10:33Z</time>
      </trkpt>
      <trkpt lat="41.36338" lon="9.164">
        <ele>2.54</ele>
        <time>2017-10-11T12:10:56Z</time>
      </trkpt>
      <trkpt lat="41.36353" lon="9.16441">
        <ele>3.02</ele>
        <time>2017-10-11T12:11:20Z</time>
      </trkpt>
      <trkpt lat="41.36367" lon="9.16478">
        <ele>2.54</ele>
        <time>2017-10-11T12:11:41Z</time>
      </trkpt>
      <trkpt lat="41.36382" lon="9.16524">
        <ele>2.54</ele>
        <time>2017-10-11T12:12:05Z</time>
      </trkpt>
      <trkpt lat="41.36401" lon="9.16577">
        <ele>2.54</ele>
        <time>2017-10-11T12:12:31Z</time>
      </trkpt>
      <trkpt lat="41.36418" lon="9.16625">
        <ele>2.06</ele>
        <time>2017-10-11T12:12:55Z</time>
      </trkpt>
      <trkpt lat="41.36434" lon="9.16675">
        <ele>2.06</ele>
        <time>2017-10-11T12:13:20Z</time>
      </trkpt>
      <trkpt lat="41.36449" lon="9.16719">
        <ele>2.06</ele>
        <time>2017-10-11T12:13:43Z</time>
      </trkpt>
      <trkpt lat="41.36463" lon="9.1676">
        <ele>2.54</ele>
        <time>2017-10-11T12:14:04Z</time>
      </trkpt>
      <trkpt lat="41.36476" lon="9.16803">
        <ele>2.54</ele>
        <time>2017-10-11T12:14:24Z</time>
      </trkpt>
      <trkpt lat="41.36488" lon="9.16844">
        <ele>2.54</ele>
        <time>2017-10-11T12:14:44Z</time>
      </trkpt>
      <trkpt lat="41.36499" lon="9.1688">
        <ele>2.06</ele>
        <time>2017-10-11T12:15:05Z</time>
      </trkpt>
      <trkpt lat="41.36495" lon="9.16888">
        <ele>2.54</ele>
        <time>2017-10-11T12:15:11Z</time>
      </trkpt>
      <trkpt lat="41.36488" lon="9.16887">
        <ele>2.54</ele>
        <time>2017-10-11T12:15:17Z</time>
      </trkpt>
      <trkpt lat="41.36458" lon="9.16889">
        <ele>2.06</ele>
        <time>2017-10-11T12:15:37Z</time>
      </trkpt>
      <trkpt lat="41.36418" lon="9.16903">
        <ele>1.58</ele>
        <time>2017-10-11T12:16:01Z</time>
      </trkpt>
      <trkpt lat="41.36382" lon="9.16916">
        <ele>2.06</ele>
        <time>2017-10-11T12:16:20Z</time>
      </trkpt>
      <trkpt lat="41.36352" lon="9.16929">
        <ele>1.58</ele>
        <time>2017-10-11T12:16:36Z</time>
      </trkpt>
      <trkpt lat="41.3631" lon="9.16943">
        <ele>1.58</ele>
        <time>2017-10-11T12:16:56Z</time>
      </trkpt>
      <trkpt lat="41.36277" lon="9.16953">
        <ele>2.06</ele>
        <time>2017-10-11T12:17:11Z</time>
      </trkpt>
      <trkpt lat="41.36236" lon="9.16968">
        <ele>2.54</ele>
        <time>2017-10-11T12:17:29Z</time>
      </trkpt>
      <trkpt lat="41.36185" lon="9.16989">
        <ele>2.54</ele>
        <time>2017-10-11T12:17:52Z</time>
      </trkpt>
      <trkpt lat="41.36143" lon="9.17006">
        <ele>1.58</ele>
        <time>2017-10-11T12:18:12Z</time>
      </trkpt>
      <trkpt lat="41.36103" lon="9.17021">
        <ele>1.58</ele>
        <time>2017-10-11T12:18:31Z</time>
      </trkpt>
      <trkpt lat="41.36054" lon="9.17037">
        <ele>0.62</ele>
        <time>2017-10-11T12:18:53Z</time>
      </trkpt>
      <trkpt lat="41.36004" lon="9.17055">
        <ele>1.1</ele>
        <time>2017-10-11T12:19:15Z</time>
      </trkpt>
      <trkpt lat="41.35959" lon="9.17069">
        <ele>1.1</ele>
        <time>2017-10-11T12:19:35Z</time>
      </trkpt>
      <trkpt lat="41.35919" lon="9.17083">
        <ele>1.1</ele>
        <time>2017-10-11T12:19:53Z</time>
      </trkpt>
      <trkpt lat="41.35867" lon="9.17101">
        <ele>0.62</ele>
        <time>2017-10-11T12:20:16Z</time>
      </trkpt>
      <trkpt lat="41.35819" lon="9.17116">
        <ele>0.62</ele>
        <time>2017-10-11T12:20:38Z</time>
      </trkpt>
      <trkpt lat="41.35773" lon="9.1713">
        <ele>0.62</ele>
        <time>2017-10-11T12:21:00Z</time>
      </trkpt>
      <trkpt lat="41.35731" lon="9.17143">
        <ele>1.1</ele>
        <time>2017-10-11T12:21:20Z</time>
      </trkpt>
      <trkpt lat="41.3569" lon="9.17156">
        <ele>1.1</ele>
        <time>2017-10-11T12:21:39Z</time>
      </trkpt>
      <trkpt lat="41.35651" lon="9.17168">
        <ele>1.58</ele>
        <time>2017-10-11T12:21:57Z</time>
      </trkpt>
      <trkpt lat="41.35611" lon="9.1718">
        <ele>1.58</ele>
        <time>2017-10-11T12:22:15Z</time>
      </trkpt>
      <trkpt lat="41.35568" lon="9.17192">
        <ele>2.06</ele>
        <time>2017-10-11T12:22:35Z</time>
      </trkpt>
      <trkpt lat="41.35531" lon="9.17203">
        <ele>2.06</ele>
        <time>2017-10-11T12:22:53Z</time>
      </trkpt>
      <trkpt lat="41.3549" lon="9.17215">
        <ele>2.06</ele>
        <time>2017-10-11T12:23:13Z</time>
      </trkpt>
      <trkpt lat="41.35447" lon="9.17228">
        <ele>1.1</ele>
        <time>2017-10-11T12:23:35Z</time>
      </trkpt>
      <trkpt lat="41.35414" lon="9.17237">
        <ele>1.1</ele>
        <time>2017-10-11T12:23:52Z</time>
      </trkpt>
      <trkpt lat="41.35374" lon="9.17248">
        <ele>0.62</ele>
        <time>2017-10-11T12:24:13Z</time>
      </trkpt>
      <trkpt lat="41.35335" lon="9.17258">
        <ele>1.1</ele>
        <time>2017-10-11T12:24:35Z</time>
      </trkpt>
      <trkpt lat="41.35304" lon="9.17266">
        <ele>0.62</ele>
        <time>2017-10-11T12:24:54Z</time>
      </trkpt>
      <trkpt lat="41.35273" lon="9.17272">
        <ele>1.1</ele>
        <time>2017-10-11T12:25:14Z</time>
      </trkpt>
      <trkpt lat="41.35244" lon="9.17278">
        <ele>0.62</ele>
        <time>2017-10-11T12:25:34Z</time>
      </trkpt>
      <trkpt lat="41.35219" lon="9.17285">
        <ele>0.62</ele>
        <time>2017-10-11T12:25:53Z</time>
      </trkpt>
      <trkpt lat="41.35195" lon="9.17292">
        <ele>0.62</ele>
        <time>2017-10-11T12:26:13Z</time>
      </trkpt>
      <trkpt lat="41.35168" lon="9.17297">
        <ele>0.62</ele>
        <time>2017-10-11T12:26:35Z</time>
      </trkpt>
      <trkpt lat="41.35144" lon="9.17312">
        <ele>1.58</ele>
        <time>2017-10-11T12:26:56Z</time>
      </trkpt>
      <trkpt lat="41.3512" lon="9.17328">
        <ele>2.06</ele>
        <time>2017-10-11T12:27:15Z</time>
      </trkpt>
      <trkpt lat="41.35093" lon="9.1735">
        <ele>2.54</ele>
        <time>2017-10-11T12:27:35Z</time>
      </trkpt>
      <trkpt lat="41.35063" lon="9.17375">
        <ele>2.54</ele>
        <time>2017-10-11T12:27:54Z</time>
      </trkpt>
      <trkpt lat="41.35026" lon="9.17408">
        <ele>2.54</ele>
        <time>2017-10-11T12:28:16Z</time>
      </trkpt>
      <trkpt lat="41.34986" lon="9.17443">
        <ele>2.54</ele>
        <time>2017-10-11T12:28:39Z</time>
      </trkpt>
      <trkpt lat="41.34942" lon="9.17481">
        <ele>2.06</ele>
        <time>2017-10-11T12:29:04Z</time>
      </trkpt>
      <trkpt lat="41.34901" lon="9.17517">
        <ele>2.06</ele>
        <time>2017-10-11T12:29:26Z</time>
      </trkpt>
      <trkpt lat="41.34868" lon="9.17548">
        <ele>2.54</ele>
        <time>2017-10-11T12:29:44Z</time>
      </trkpt>
      <trkpt lat="41.34834" lon="9.17578">
        <ele>2.54</ele>
        <time>2017-10-11T12:30:02Z</time>
      </trkpt>
      <trkpt lat="41.34796" lon="9.17612">
        <ele>2.06</ele>
        <time>2017-10-11T12:30:22Z</time>
      </trkpt>
      <trkpt lat="41.34755" lon="9.17648">
        <ele>1.58</ele>
        <time>2017-10-11T12:30:44Z</time>
      </trkpt>
      <trkpt lat="41.34724" lon="9.17676">
        <ele>2.06</ele>
        <time>2017-10-11T12:31:01Z</time>
      </trkpt>
      <trkpt lat="41.34687" lon="9.17708">
        <ele>2.06</ele>
        <time>2017-10-11T12:31:21Z</time>
      </trkpt>
      <trkpt lat="41.34645" lon="9.17745">
        <ele>1.58</ele>
        <time>2017-10-11T12:31:45Z</time>
      </trkpt>
      <trkpt lat="41.34607" lon="9.17778">
        <ele>1.58</ele>
        <time>2017-10-11T12:32:08Z</time>
      </trkpt>
      <trkpt lat="41.34572" lon="9.17808">
        <ele>1.58</ele>
        <time>2017-10-11T12:32:28Z</time>
      </trkpt>
      <trkpt lat="41.34528" lon="9.17844">
        <ele>2.06</ele>
        <time>2017-10-11T12:32:52Z</time>
      </trkpt>
      <trkpt lat="41.34487" lon="9.1788">
        <ele>2.06</ele>
        <time>2017-10-11T12:33:14Z</time>
      </trkpt>
      <trkpt lat="41.34449" lon="9.17913">
        <ele>2.06</ele>
        <time>2017-10-11T12:33:34Z</time>
      </trkpt>
      <trkpt lat="41.3441" lon="9.17947">
        <ele>2.06</ele>
        <time>2017-10-11T12:33:55Z</time>
      </trkpt>
      <trkpt lat="41.34366" lon="9.17986">
        <ele>2.06</ele>
        <time>2017-10-11T12:34:18Z</time>
      </trkpt>
      <trkpt lat="41.34331" lon="9.18016">
        <ele>2.06</ele>
        <time>2017-10-11T12:34:36Z</time>
      </trkpt>
      <trkpt lat="41.34294" lon="9.18047">
        <ele>2.06</ele>
        <time>2017-10-11T12:34:56Z</time>
      </trkpt>
      <trkpt lat="41.34252" lon="9.18083">
        <ele>2.06</ele>
        <time>2017-10-11T12:35:18Z</time>
      </trkpt>
      <trkpt lat="41.34223" lon="9.18107">
        <ele>2.06</ele>
        <time>2017-10-11T12:35:33Z</time>
      </trkpt>
      <trkpt lat="41.34187" lon="9.18138">
        <ele>2.06</ele>
        <time>2017-10-11T12:35:52Z</time>
      </trkpt>
      <trkpt lat="41.34147" lon="9.18173">
        <ele>2.06</ele>
        <time>2017-10-11T12:36:13Z</time>
      </trkpt>
      <trkpt lat="41.34108" lon="9.18206">
        <ele>1.58</ele>
        <time>2017-10-11T12:36:34Z</time>
      </trkpt>
      <trkpt lat="41.34068" lon="9.18239">
        <ele>1.58</ele>
        <time>2017-10-11T12:36:55Z</time>
      </trkpt>
      <trkpt lat="41.34026" lon="9.1827">
        <ele>1.58</ele>
        <time>2017-10-11T12:37:17Z</time>
      </trkpt>
      <trkpt lat="41.33996" lon="9.18294">
        <ele>2.06</ele>
        <time>2017-10-11T12:37:35Z</time>
      </trkpt>
      <trkpt lat="41.33963" lon="9.18319">
        <ele>2.06</ele>
        <time>2017-10-11T12:37:56Z</time>
      </trkpt>
      <trkpt lat="41.33934" lon="9.18339">
        <ele>2.06</ele>
        <time>2017-10-11T12:38:14Z</time>
      </trkpt>
      <trkpt lat="41.33921" lon="9.18361">
        <ele>2.54</ele>
        <time>2017-10-11T12:38:28Z</time>
      </trkpt>
      <trkpt lat="41.33939" lon="9.1838">
        <ele>2.06</ele>
        <time>2017-10-11T12:38:46Z</time>
      </trkpt>
      <trkpt lat="41.33964" lon="9.18402">
        <ele>2.06</ele>
        <time>2017-10-11T12:39:07Z</time>
      </trkpt>
      <trkpt lat="41.3399" lon="9.18426">
        <ele>2.06</ele>
        <time>2017-10-11T12:39:28Z</time>
      </trkpt>
      <trkpt lat="41.34017" lon="9.18451">
        <ele>2.06</ele>
        <time>2017-10-11T12:39:49Z</time>
      </trkpt>
      <trkpt lat="41.34036" lon="9.18477">
        <ele>2.06</ele>
        <time>2017-10-11T12:40:09Z</time>
      </trkpt>
      <trkpt lat="41.34057" lon="9.18503">
        <ele>2.54</ele>
        <time>2017-10-11T12:40:32Z</time>
      </trkpt>
      <trkpt lat="41.34067" lon="9.18526">
        <ele>2.54</ele>
        <time>2017-10-11T12:40:54Z</time>
      </trkpt>
      <trkpt lat="41.34083" lon="9.18542">
        <ele>2.06</ele>
        <time>2017-10-11T12:41:16Z</time>
      </trkpt>
      <trkpt lat="41.34087" lon="9.18556">
        <ele>2.06</ele>
        <time>2017-10-11T12:41:35Z</time>
      </trkpt>
      <trkpt lat="41.34083" lon="9.18558">
        <ele>2.06</ele>
        <time>2017-10-11T12:41:40Z</time>
      </trkpt>
      <trkpt lat="41.3406" lon="9.18569">
        <ele>2.06</ele>
        <time>2017-10-11T12:42:05Z</time>
      </trkpt>
      <trkpt lat="41.3404" lon="9.18585">
        <ele>2.54</ele>
        <time>2017-10-11T12:42:25Z</time>
      </trkpt>
      <trkpt lat="41.34019" lon="9.1861">
        <ele>2.06</ele>
        <time>2017-10-11T12:42:45Z</time>
      </trkpt>
      <trkpt lat="41.34001" lon="9.18641">
        <ele>1.58</ele>
        <time>2017-10-11T12:43:05Z</time>
      </trkpt>
      <trkpt lat="41.33986" lon="9.18677">
        <ele>1.1</ele>
        <time>2017-10-11T12:43:28Z</time>
      </trkpt>
      <trkpt lat="41.33971" lon="9.18707">
        <ele>1.58</ele>
        <time>2017-10-11T12:43:47Z</time>
      </trkpt>
      <trkpt lat="41.33954" lon="9.18738">
        <ele>1.58</ele>
        <time>2017-10-11T12:44:07Z</time>
      </trkpt>
      <trkpt lat="41.33938" lon="9.18764">
        <ele>1.58</ele>
        <time>2017-10-11T12:44:24Z</time>
      </trkpt>
      <trkpt lat="41.33919" lon="9.18796">
        <ele>1.58</ele>
        <time>2017-10-11T12:44:43Z</time>
      </trkpt>
      <trkpt lat="41.33903" lon="9.18826">
        <ele>1.58</ele>
        <time>2017-10-11T12:45:01Z</time>
      </trkpt>
      <trkpt lat="41.33887" lon="9.18853">
        <ele>2.06</ele>
        <time>2017-10-11T12:45:17Z</time>
      </trkpt>
      <trkpt lat="41.33864" lon="9.1889">
        <ele>1.1</ele>
        <time>2017-10-11T12:45:38Z</time>
      </trkpt>
      <trkpt lat="41.33839" lon="9.18932">
        <ele>1.1</ele>
        <time>2017-10-11T12:46:00Z</time>
      </trkpt>
      <trkpt lat="41.33818" lon="9.18975">
        <ele>1.58</ele>
        <time>2017-10-11T12:46:20Z</time>
      </trkpt>
      <trkpt lat="41.33799" lon="9.19011">
        <ele>1.1</ele>
        <time>2017-10-11T12:46:39Z</time>
      </trkpt>
      <trkpt lat="41.33777" lon="9.19052">
        <ele>1.1</ele>
        <time>2017-10-11T12:47:01Z</time>
      </trkpt>
      <trkpt lat="41.33757" lon="9.19091">
        <ele>1.1</ele>
        <time>2017-10-11T12:47:23Z</time>
      </trkpt>
      <trkpt lat="41.33739" lon="9.19127">
        <ele>1.58</ele>
        <time>2017-10-11T12:47:43Z</time>
      </trkpt>
      <trkpt lat="41.33723" lon="9.19153">
        <ele>1.1</ele>
        <time>2017-10-11T12:47:58Z</time>
      </trkpt>
      <trkpt lat="41.33702" lon="9.19185">
        <ele>0.62</ele>
        <time>2017-10-11T12:48:16Z</time>
      </trkpt>
      <trkpt lat="41.3367" lon="9.19238">
        <ele>1.1</ele>
        <time>2017-10-11T12:48:44Z</time>
      </trkpt>
      <trkpt lat="41.33649" lon="9.19279">
        <ele>1.1</ele>
        <time>2017-10-11T12:49:04Z</time>
      </trkpt>
      <trkpt lat="41.33625" lon="9.19319">
        <ele>1.1</ele>
        <time>2017-10-11T12:49:23Z</time>
      </trkpt>
      <trkpt lat="41.33598" lon="9.19374">
        <ele>1.58</ele>
        <time>2017-10-11T12:49:47Z</time>
      </trkpt>
      <trkpt lat="41.33576" lon="9.19418">
        <ele>1.58</ele>
        <time>2017-10-11T12:50:08Z</time>
      </trkpt>
      <trkpt lat="41.33552" lon="9.19465">
        <ele>1.58</ele>
        <time>2017-10-11T12:50:31Z</time>
      </trkpt>
      <trkpt lat="41.33534" lon="9.19497">
        <ele>1.1</ele>
        <time>2017-10-11T12:50:48Z</time>
      </trkpt>
      <trkpt lat="41.33509" lon="9.19536">
        <ele>0.62</ele>
        <time>2017-10-11T12:51:08Z</time>
      </trkpt>
      <trkpt lat="41.33482" lon="9.19581">
        <ele>1.1</ele>
        <time>2017-10-11T12:51:30Z</time>
      </trkpt>
      <trkpt lat="41.33461" lon="9.1962">
        <ele>1.1</ele>
        <time>2017-10-11T12:51:51Z</time>
      </trkpt>
      <trkpt lat="41.33437" lon="9.19664">
        <ele>1.1</ele>
        <time>2017-10-11T12:52:15Z</time>
      </trkpt>
      <trkpt lat="41.33416" lon="9.19705">
        <ele>1.1</ele>
        <time>2017-10-11T12:52:39Z</time>
      </trkpt>
      <trkpt lat="41.33394" lon="9.1974">
        <ele>0.14</ele>
        <time>2017-10-11T12:53:00Z</time>
      </trkpt>
      <trkpt lat="41.33371" lon="9.19779">
        <ele>0.62</ele>
        <time>2017-10-11T12:53:21Z</time>
      </trkpt>
      <trkpt lat="41.33353" lon="9.19809">
        <ele>0.62</ele>
        <time>2017-10-11T12:53:37Z</time>
      </trkpt>
      <trkpt lat="41.33338" lon="9.19842">
        <ele>0.62</ele>
        <time>2017-10-11T12:53:55Z</time>
      </trkpt>
      <trkpt lat="41.33329" lon="9.19871">
        <ele>1.1</ele>
        <time>2017-10-11T12:54:13Z</time>
      </trkpt>
      <trkpt lat="41.33317" lon="9.19892">
        <ele>1.1</ele>
        <time>2017-10-11T12:54:28Z</time>
      </trkpt>
      <trkpt lat="41.33302" lon="9.19917">
        <ele>1.1</ele>
        <time>2017-10-11T12:54:45Z</time>
      </trkpt>
      <trkpt lat="41.33281" lon="9.19952">
        <ele>1.1</ele>
        <time>2017-10-11T12:55:07Z</time>
      </trkpt>
      <trkpt lat="41.33264" lon="9.19984">
        <ele>0.62</ele>
        <time>2017-10-11T12:55:26Z</time>
      </trkpt>
      <trkpt lat="41.33248" lon="9.20012">
        <ele>0.62</ele>
        <time>2017-10-11T12:55:42Z</time>
      </trkpt>
      <trkpt lat="41.33231" lon="9.20043">
        <ele>0.62</ele>
        <time>2017-10-11T12:55:59Z</time>
      </trkpt>
      <trkpt lat="41.33206" lon="9.20085">
        <ele>1.1</ele>
        <time>2017-10-11T12:56:22Z</time>
      </trkpt>
      <trkpt lat="41.33187" lon="9.20121">
        <ele>0.62</ele>
        <time>2017-10-11T12:56:40Z</time>
      </trkpt>
      <trkpt lat="41.33168" lon="9.20156">
        <ele>0.62</ele>
        <time>2017-10-11T12:56:57Z</time>
      </trkpt>
      <trkpt lat="41.33143" lon="9.202">
        <ele>0.14</ele>
        <time>2017-10-11T12:57:19Z</time>
      </trkpt>
      <trkpt lat="41.3312" lon="9.20241">
        <ele>1.1</ele>
        <time>2017-10-11T12:57:40Z</time>
      </trkpt>
      <trkpt lat="41.33096" lon="9.2028">
        <ele>0.62</ele>
        <time>2017-10-11T12:58:00Z</time>
      </trkpt>
      <trkpt lat="41.33073" lon="9.20316">
        <ele>0.62</ele>
        <time>2017-10-11T12:58:19Z</time>
      </trkpt>
      <trkpt lat="41.33055" lon="9.20349">
        <ele>0.62</ele>
        <time>2017-10-11T12:58:37Z</time>
      </trkpt>
      <trkpt lat="41.3304" lon="9.20381">
        <ele>1.1</ele>
        <time>2017-10-11T12:58:58Z</time>
      </trkpt>
      <trkpt lat="41.33024" lon="9.20408">
        <ele>0.62</ele>
        <time>2017-10-11T12:59:20Z</time>
      </trkpt>
      <trkpt lat="41.33007" lon="9.2043">
        <ele>0.62</ele>
        <time>2017-10-11T12:59:39Z</time>
      </trkpt>
      <trkpt lat="41.32992" lon="9.20454">
        <ele>1.58</ele>
        <time>2017-10-11T12:59:58Z</time>
      </trkpt>
      <trkpt lat="41.32974" lon="9.20476">
        <ele>1.1</ele>
        <time>2017-10-11T13:00:15Z</time>
      </trkpt>
      <trkpt lat="41.32953" lon="9.20505">
        <ele>1.58</ele>
        <time>2017-10-11T13:00:35Z</time>
      </trkpt>
      <trkpt lat="41.32938" lon="9.20532">
        <ele>1.58</ele>
        <time>2017-10-11T13:00:55Z</time>
      </trkpt>
      <trkpt lat="41.32926" lon="9.2055">
        <ele>2.54</ele>
        <time>2017-10-11T13:01:12Z</time>
      </trkpt>
      <trkpt lat="41.32912" lon="9.20568">
        <ele>2.06</ele>
        <time>2017-10-11T13:01:30Z</time>
      </trkpt>
      <trkpt lat="41.329" lon="9.20583">
        <ele>2.54</ele>
        <time>2017-10-11T13:01:45Z</time>
      </trkpt>
      <trkpt lat="41.32887" lon="9.20601">
        <ele>2.54</ele>
        <time>2017-10-11T13:02:01Z</time>
      </trkpt>
      <trkpt lat="41.32872" lon="9.2062">
        <ele>2.06</ele>
        <time>2017-10-11T13:02:18Z</time>
      </trkpt>
      <trkpt lat="41.32866" lon="9.20628">
        <ele>2.06</ele>
        <time>2017-10-11T13:02:25Z</time>
      </trkpt>
      <trkpt lat="41.32849" lon="9.20651">
        <ele>1.58</ele>
        <time>2017-10-11T13:02:43Z</time>
      </trkpt>
      <trkpt lat="41.32836" lon="9.20671">
        <ele>1.1</ele>
        <time>2017-10-11T13:02:59Z</time>
      </trkpt>
      <trkpt lat="41.32822" lon="9.20688">
        <ele>1.58</ele>
        <time>2017-10-11T13:03:13Z</time>
      </trkpt>
      <trkpt lat="41.32823" lon="9.20696">
        <ele>1.58</ele>
        <time>2017-10-11T13:03:20Z</time>
      </trkpt>
      <trkpt lat="41.32844" lon="9.20701">
        <ele>2.06</ele>
        <time>2017-10-11T13:03:36Z</time>
      </trkpt>
      <trkpt lat="41.32869" lon="9.20715">
        <ele>2.06</ele>
        <time>2017-10-11T13:03:56Z</time>
      </trkpt>
      <trkpt lat="41.32894" lon="9.20733">
        <ele>2.54</ele>
        <time>2017-10-11T13:04:15Z</time>
      </trkpt>
      <trkpt lat="41.32919" lon="9.20751">
        <ele>2.06</ele>
        <time>2017-10-11T13:04:32Z</time>
      </trkpt>
      <trkpt lat="41.32948" lon="9.20774">
        <ele>2.06</ele>
        <time>2017-10-11T13:04:51Z</time>
      </trkpt>
      <trkpt lat="41.32972" lon="9.20794">
        <ele>2.54</ele>
        <time>2017-10-11T13:05:07Z</time>
      </trkpt>
      <trkpt lat="41.32995" lon="9.20814">
        <ele>2.06</ele>
        <time>2017-10-11T13:05:23Z</time>
      </trkpt>
      <trkpt lat="41.33023" lon="9.20841">
        <ele>2.06</ele>
        <time>2017-10-11T13:05:42Z</time>
      </trkpt>
      <trkpt lat="41.33046" lon="9.20869">
        <ele>2.06</ele>
        <time>2017-10-11T13:06:01Z</time>
      </trkpt>
      <trkpt lat="41.33074" lon="9.20895">
        <ele>2.06</ele>
        <time>2017-10-11T13:06:21Z</time>
      </trkpt>
      <trkpt lat="41.33098" lon="9.20922">
        <ele>1.58</ele>
        <time>2017-10-11T13:06:39Z</time>
      </trkpt>
      <trkpt lat="41.33121" lon="9.20948">
        <ele>2.06</ele>
        <time>2017-10-11T13:06:57Z</time>
      </trkpt>
      <trkpt lat="41.33142" lon="9.20968">
        <ele>2.54</ele>
        <time>2017-10-11T13:07:13Z</time>
      </trkpt>
      <trkpt lat="41.33164" lon="9.20989">
        <ele>3.02</ele>
        <time>2017-10-11T13:07:33Z</time>
      </trkpt>
      <trkpt lat="41.33181" lon="9.21004">
        <ele>3.5</ele>
        <time>2017-10-11T13:07:50Z</time>
      </trkpt>
      <trkpt lat="41.33198" lon="9.2102">
        <ele>3.02</ele>
        <time>2017-10-11T13:08:07Z</time>
      </trkpt>
      <trkpt lat="41.33214" lon="9.21038">
        <ele>3.02</ele>
        <time>2017-10-11T13:08:26Z</time>
      </trkpt>
      <trkpt lat="41.33225" lon="9.21052">
        <ele>2.54</ele>
        <time>2017-10-11T13:08:43Z</time>
      </trkpt>
      <trkpt lat="41.33238" lon="9.21062">
        <ele>3.02</ele>
        <time>2017-10-11T13:08:59Z</time>
      </trkpt>
      <trkpt lat="41.33258" lon="9.21076">
        <ele>3.5</ele>
        <time>2017-10-11T13:09:21Z</time>
      </trkpt>
      <trkpt lat="41.33275" lon="9.21089">
        <ele>3.02</ele>
        <time>2017-10-11T13:09:38Z</time>
      </trkpt>
      <trkpt lat="41.33295" lon="9.21107">
        <ele>3.02</ele>
        <time>2017-10-11T13:09:56Z</time>
      </trkpt>
      <trkpt lat="41.33317" lon="9.21128">
        <ele>3.5</ele>
        <time>2017-10-11T13:10:19Z</time>
      </trkpt>
      <trkpt lat="41.33333" lon="9.21142">
        <ele>3.5</ele>
        <time>2017-10-11T13:10:38Z</time>
      </trkpt>
      <trkpt lat="41.33355" lon="9.21155">
        <ele>3.02</ele>
        <time>2017-10-11T13:10:59Z</time>
      </trkpt>
      <trkpt lat="41.33375" lon="9.21166">
        <ele>2.54</ele>
        <time>2017-10-11T13:11:16Z</time>
      </trkpt>
      <trkpt lat="41.33397" lon="9.2118">
        <ele>2.54</ele>
        <time>2017-10-11T13:11:34Z</time>
      </trkpt>
      <trkpt lat="41.3342" lon="9.21195">
        <ele>3.5</ele>
        <time>2017-10-11T13:11:52Z</time>
      </trkpt>
      <trkpt lat="41.33448" lon="9.21211">
        <ele>3.02</ele>
        <time>2017-10-11T13:12:14Z</time>
      </trkpt>
      <trkpt lat="41.33474" lon="9.21227">
        <ele>2.54</ele>
        <time>2017-10-11T13:12:37Z</time>
      </trkpt>
      <trkpt lat="41.33502" lon="9.21244">
        <ele>3.02</ele>
        <time>2017-10-11T13:12:59Z</time>
      </trkpt>
      <trkpt lat="41.33522" lon="9.21256">
        <ele>2.54</ele>
        <time>2017-10-11T13:13:15Z</time>
      </trkpt>
      <trkpt lat="41.33549" lon="9.2127">
        <ele>2.54</ele>
        <time>2017-10-11T13:13:35Z</time>
      </trkpt>
      <trkpt lat="41.33572" lon="9.21286">
        <ele>2.54</ele>
        <time>2017-10-11T13:13:53Z</time>
      </trkpt>
      <trkpt lat="41.33591" lon="9.21296">
        <ele>3.5</ele>
        <time>2017-10-11T13:14:08Z</time>
      </trkpt>
      <trkpt lat="41.3361" lon="9.21307">
        <ele>3.5</ele>
        <time>2017-10-11T13:14:23Z</time>
      </trkpt>
      <trkpt lat="41.3363" lon="9.21318">
        <ele>3.02</ele>
        <time>2017-10-11T13:14:39Z</time>
      </trkpt>
      <trkpt lat="41.33653" lon="9.21329">
        <ele>3.02</ele>
        <time>2017-10-11T13:14:56Z</time>
      </trkpt>
      <trkpt lat="41.33672" lon="9.21341">
        <ele>3.02</ele>
        <time>2017-10-11T13:15:11Z</time>
      </trkpt>
      <trkpt lat="41.33689" lon="9.21352">
        <ele>3.5</ele>
        <time>2017-10-11T13:15:26Z</time>
      </trkpt>
      <trkpt lat="41.33712" lon="9.21367">
        <ele>4.46</ele>
        <time>2017-10-11T13:15:46Z</time>
      </trkpt>
      <trkpt lat="41.33733" lon="9.2138">
        <ele>3.98</ele>
        <time>2017-10-11T13:16:04Z</time>
      </trkpt>
      <trkpt lat="41.33754" lon="9.21393">
        <ele>3.02</ele>
        <time>2017-10-11T13:16:23Z</time>
      </trkpt>
      <trkpt lat="41.33773" lon="9.21406">
        <ele>2.06</ele>
        <time>2017-10-11T13:16:41Z</time>
      </trkpt>
      <trkpt lat="41.33795" lon="9.21422">
        <ele>2.06</ele>
        <time>2017-10-11T13:17:01Z</time>
      </trkpt>
      <trkpt lat="41.33815" lon="9.21435">
        <ele>2.54</ele>
        <time>2017-10-11T13:17:17Z</time>
      </trkpt>
      <trkpt lat="41.33838" lon="9.2145">
        <ele>3.02</ele>
        <time>2017-10-11T13:17:36Z</time>
      </trkpt>
      <trkpt lat="41.33862" lon="9.21466">
        <ele>2.54</ele>
        <time>2017-10-11T13:17:53Z</time>
      </trkpt>
      <trkpt lat="41.3389" lon="9.21487">
        <ele>3.02</ele>
        <time>2017-10-11T13:18:13Z</time>
      </trkpt>
      <trkpt lat="41.33914" lon="9.21506">
        <ele>3.5</ele>
        <time>2017-10-11T13:18:31Z</time>
      </trkpt>
      <trkpt lat="41.33944" lon="9.21531">
        <ele>3.98</ele>
        <time>2017-10-11T13:18:55Z</time>
      </trkpt>
      <trkpt lat="41.33972" lon="9.2155">
        <ele>4.46</ele>
        <time>2017-10-11T13:19:17Z</time>
      </trkpt>
      <trkpt lat="41.33999" lon="9.21569">
        <ele>3.5</ele>
        <time>2017-10-11T13:19:38Z</time>
      </trkpt>
      <trkpt lat="41.34005" lon="9.21574">
        <ele>3.02</ele>
        <time>2017-10-11T13:19:43Z</time>
      </trkpt>
      <trkpt lat="41.34012" lon="9.21577">
        <ele>3.5</ele>
        <time>2017-10-11T13:19:48Z</time>
      </trkpt>
      <trkpt lat="41.34042" lon="9.21593">
        <ele>2.54</ele>
        <time>2017-10-11T13:20:08Z</time>
      </trkpt>
      <trkpt lat="41.34068" lon="9.21609">
        <ele>2.06</ele>
        <time>2017-10-11T13:20:25Z</time>
      </trkpt>
      <trkpt lat="41.341" lon="9.21628">
        <ele>2.06</ele>
        <time>2017-10-11T13:20:45Z</time>
      </trkpt>
      <trkpt lat="41.34134" lon="9.2165">
        <ele>2.54</ele>
        <time>2017-10-11T13:21:07Z</time>
      </trkpt>
      <trkpt lat="41.34167" lon="9.21673">
        <ele>2.54</ele>
        <time>2017-10-11T13:21:27Z</time>
      </trkpt>
      <trkpt lat="41.34196" lon="9.21695">
        <ele>2.54</ele>
        <time>2017-10-11T13:21:46Z</time>
      </trkpt>
      <trkpt lat="41.34232" lon="9.21719">
        <ele>3.02</ele>
        <time>2017-10-11T13:22:08Z</time>
      </trkpt>
      <trkpt lat="41.34268" lon="9.21745">
        <ele>2.54</ele>
        <time>2017-10-11T13:22:30Z</time>
      </trkpt>
      <trkpt lat="41.34298" lon="9.21768">
        <ele>2.54</ele>
        <time>2017-10-11T13:22:50Z</time>
      </trkpt>
      <trkpt lat="41.34332" lon="9.21793">
        <ele>2.54</ele>
        <time>2017-10-11T13:23:12Z</time>
      </trkpt>
      <trkpt lat="41.34359" lon="9.21815">
        <ele>2.06</ele>
        <time>2017-10-11T13:23:31Z</time>
      </trkpt>
      <trkpt lat="41.34392" lon="9.21842">
        <ele>1.1</ele>
        <time>2017-10-11T13:23:54Z</time>
      </trkpt>
      <trkpt lat="41.34421" lon="9.21863">
        <ele>2.06</ele>
        <time>2017-10-11T13:24:14Z</time>
      </trkpt>
      <trkpt lat="41.34453" lon="9.21883">
        <ele>3.02</ele>
        <time>2017-10-11T13:24:35Z</time>
      </trkpt>
      <trkpt lat="41.34491" lon="9.21905">
        <ele>3.02</ele>
        <time>2017-10-11T13:24:58Z</time>
      </trkpt>
      <trkpt lat="41.34523" lon="9.21925">
        <ele>3.02</ele>
        <time>2017-10-11T13:25:17Z</time>
      </trkpt>
      <trkpt lat="41.34556" lon="9.21945">
        <ele>2.54</ele>
        <time>2017-10-11T13:25:38Z</time>
      </trkpt>
      <trkpt lat="41.3459" lon="9.21964">
        <ele>2.54</ele>
        <time>2017-10-11T13:26:00Z</time>
      </trkpt>
      <trkpt lat="41.3462" lon="9.21979">
        <ele>2.06</ele>
        <time>2017-10-11T13:26:21Z</time>
      </trkpt>
      <trkpt lat="41.34646" lon="9.21993">
        <ele>2.06</ele>
        <time>2017-10-11T13:26:41Z</time>
      </trkpt>
      <trkpt lat="41.34674" lon="9.22007">
        <ele>1.1</ele>
        <time>2017-10-11T13:27:03Z</time>
      </trkpt>
      <trkpt lat="41.34702" lon="9.2202">
        <ele>1.1</ele>
        <time>2017-10-11T13:27:26Z</time>
      </trkpt>
      <trkpt lat="41.34731" lon="9.22035">
        <ele>1.58</ele>
        <time>2017-10-11T13:27:51Z</time>
      </trkpt>
      <trkpt lat="41.34761" lon="9.22049">
        <ele>1.1</ele>
        <time>2017-10-11T13:28:15Z</time>
      </trkpt>
      <trkpt lat="41.34789" lon="9.22066">
        <ele>2.06</ele>
        <time>2017-10-11T13:28:35Z</time>
      </trkpt>
      <trkpt lat="41.34814" lon="9.22082">
        <ele>2.06</ele>
        <time>2017-10-11T13:28:53Z</time>
      </trkpt>
      <trkpt lat="41.34842" lon="9.221">
        <ele>2.54</ele>
        <time>2017-10-11T13:29:12Z</time>
      </trkpt>
      <trkpt lat="41.3487" lon="9.22118">
        <ele>2.06</ele>
        <time>2017-10-11T13:29:31Z</time>
      </trkpt>
      <trkpt lat="41.34897" lon="9.22137">
        <ele>1.58</ele>
        <time>2017-10-11T13:29:50Z</time>
      </trkpt>
      <trkpt lat="41.34921" lon="9.2215">
        <ele>2.06</ele>
        <time>2017-10-11T13:30:09Z</time>
      </trkpt>
      <trkpt lat="41.34948" lon="9.22165">
        <ele>1.1</ele>
        <time>2017-10-11T13:30:29Z</time>
      </trkpt>
      <trkpt lat="41.34975" lon="9.2218">
        <ele>1.58</ele>
        <time>2017-10-11T13:30:48Z</time>
      </trkpt>
      <trkpt lat="41.35002" lon="9.22197">
        <ele>1.58</ele>
        <time>2017-10-11T13:31:08Z</time>
      </trkpt>
      <trkpt lat="41.35029" lon="9.22212">
        <ele>1.58</ele>
        <time>2017-10-11T13:31:28Z</time>
      </trkpt>
      <trkpt lat="41.35052" lon="9.22226">
        <ele>1.58</ele>
        <time>2017-10-11T13:31:46Z</time>
      </trkpt>
      <trkpt lat="41.35078" lon="9.22241">
        <ele>3.02</ele>
        <time>2017-10-11T13:32:07Z</time>
      </trkpt>
      <trkpt lat="41.35111" lon="9.22257">
        <ele>2.54</ele>
        <time>2017-10-11T13:32:33Z</time>
      </trkpt>
      <trkpt lat="41.35136" lon="9.22271">
        <ele>2.06</ele>
        <time>2017-10-11T13:32:53Z</time>
      </trkpt>
      <trkpt lat="41.3516" lon="9.22286">
        <ele>2.54</ele>
        <time>2017-10-11T13:33:11Z</time>
      </trkpt>
      <trkpt lat="41.35193" lon="9.22308">
        <ele>2.06</ele>
        <time>2017-10-11T13:33:33Z</time>
      </trkpt>
      <trkpt lat="41.35226" lon="9.22331">
        <ele>2.06</ele>
        <time>2017-10-11T13:33:55Z</time>
      </trkpt>
      <trkpt lat="41.35264" lon="9.22356">
        <ele>2.06</ele>
        <time>2017-10-11T13:34:19Z</time>
      </trkpt>
      <trkpt lat="41.35297" lon="9.22377">
        <ele>1.58</ele>
        <time>2017-10-11T13:34:39Z</time>
      </trkpt>
      <trkpt lat="41.35327" lon="9.224">
        <ele>2.06</ele>
        <time>2017-10-11T13:34:58Z</time>
      </trkpt>
      <trkpt lat="41.35356" lon="9.22421">
        <ele>2.06</ele>
        <time>2017-10-11T13:35:17Z</time>
      </trkpt>
      <trkpt lat="41.35394" lon="9.22444">
        <ele>2.06</ele>
        <time>2017-10-11T13:35:40Z</time>
      </trkpt>
      <trkpt lat="41.35429" lon="9.22469">
        <ele>2.54</ele>
        <time>2017-10-11T13:36:01Z</time>
      </trkpt>
      <trkpt lat="41.35466" lon="9.22494">
        <ele>2.54</ele>
        <time>2017-10-11T13:36:23Z</time>
      </trkpt>
      <trkpt lat="41.35499" lon="9.22516">
        <ele>2.06</ele>
        <time>2017-10-11T13:36:41Z</time>
      </trkpt>
      <trkpt lat="41.35534" lon="9.22539">
        <ele>1.1</ele>
        <time>2017-10-11T13:37:01Z</time>
      </trkpt>
      <trkpt lat="41.35567" lon="9.2256">
        <ele>1.58</ele>
        <time>2017-10-11T13:37:21Z</time>
      </trkpt>
      <trkpt lat="41.356" lon="9.22581">
        <ele>1.1</ele>
        <time>2017-10-11T13:37:40Z</time>
      </trkpt>
      <trkpt lat="41.35641" lon="9.2261">
        <ele>1.1</ele>
        <time>2017-10-11T13:38:04Z</time>
      </trkpt>
      <trkpt lat="41.35672" lon="9.22634">
        <ele>1.58</ele>
        <time>2017-10-11T13:38:25Z</time>
      </trkpt>
      <trkpt lat="41.35701" lon="9.22656">
        <ele>0.62</ele>
        <time>2017-10-11T13:38:47Z</time>
      </trkpt>
      <trkpt lat="41.35733" lon="9.2268">
        <ele>0.62</ele>
        <time>2017-10-11T13:39:13Z</time>
      </trkpt>
      <trkpt lat="41.3576" lon="9.227">
        <ele>0.62</ele>
        <time>2017-10-11T13:39:37Z</time>
      </trkpt>
      <trkpt lat="41.3578" lon="9.22712">
        <ele>1.58</ele>
        <time>2017-10-11T13:39:54Z</time>
      </trkpt>
      <trkpt lat="41.35791" lon="9.2272">
        <ele>1.1</ele>
        <time>2017-10-11T13:40:04Z</time>
      </trkpt>
      <trkpt lat="41.35796" lon="9.22724">
        <ele>1.1</ele>
        <time>2017-10-11T13:40:09Z</time>
      </trkpt>
      <trkpt lat="41.35819" lon="9.2274">
        <ele>2.06</ele>
        <time>2017-10-11T13:40:28Z</time>
      </trkpt>
      <trkpt lat="41.35842" lon="9.2276">
        <ele>1.58</ele>
        <time>2017-10-11T13:40:46Z</time>
      </trkpt>
      <trkpt lat="41.35865" lon="9.22781">
        <ele>1.58</ele>
        <time>2017-10-11T13:41:03Z</time>
      </trkpt>
      <trkpt lat="41.35891" lon="9.22803">
        <ele>2.54</ele>
        <time>2017-10-11T13:41:21Z</time>
      </trkpt>
      <trkpt lat="41.35928" lon="9.22835">
        <ele>3.02</ele>
        <time>2017-10-11T13:41:45Z</time>
      </trkpt>
      <trkpt lat="41.35965" lon="9.22867">
        <ele>3.5</ele>
        <time>2017-10-11T13:42:08Z</time>
      </trkpt>
      <trkpt lat="41.36" lon="9.22898">
        <ele>3.5</ele>
        <time>2017-10-11T13:42:30Z</time>
      </trkpt>
      <trkpt lat="41.36034" lon="9.22928">
        <ele>3.5</ele>
        <time>2017-10-11T13:42:52Z</time>
      </trkpt>
      <trkpt lat="41.36072" lon="9.22961">
        <ele>3.02</ele>
        <time>2017-10-11T13:43:16Z</time>
      </trkpt>
      <trkpt lat="41.36111" lon="9.22997">
        <ele>3.02</ele>
        <time>2017-10-11T13:43:41Z</time>
      </trkpt>
      <trkpt lat="41.36146" lon="9.23027">
        <ele>3.02</ele>
        <time>2017-10-11T13:44:03Z</time>
      </trkpt>
      <trkpt lat="41.36182" lon="9.23061">
        <ele>2.54</ele>
        <time>2017-10-11T13:44:26Z</time>
      </trkpt>
      <trkpt lat="41.36217" lon="9.23091">
        <ele>3.5</ele>
        <time>2017-10-11T13:44:47Z</time>
      </trkpt>
      <trkpt lat="41.36261" lon="9.2312">
        <ele>3.5</ele>
        <time>2017-10-11T13:45:12Z</time>
      </trkpt>
      <trkpt lat="41.36298" lon="9.2314">
        <ele>3.02</ele>
        <time>2017-10-11T13:45:33Z</time>
      </trkpt>
      <trkpt lat="41.36336" lon="9.23159">
        <ele>3.5</ele>
        <time>2017-10-11T13:45:55Z</time>
      </trkpt>
      <trkpt lat="41.36365" lon="9.23175">
        <ele>2.06</ele>
        <time>2017-10-11T13:46:12Z</time>
      </trkpt>
      <trkpt lat="41.36408" lon="9.23197">
        <ele>0.62</ele>
        <time>2017-10-11T13:46:36Z</time>
      </trkpt>
      <trkpt lat="41.36446" lon="9.23216">
        <ele>1.1</ele>
        <time>2017-10-11T13:46:59Z</time>
      </trkpt>
      <trkpt lat="41.36478" lon="9.23233">
        <ele>-0.34</ele>
        <time>2017-10-11T13:47:19Z</time>
      </trkpt>
      <trkpt lat="41.36512" lon="9.23248">
        <ele>1.1</ele>
        <time>2017-10-11T13:47:40Z</time>
      </trkpt>
      <trkpt lat="41.36541" lon="9.23263">
        <ele>1.1</ele>
        <time>2017-10-11T13:48:01Z</time>
      </trkpt>
      <trkpt lat="41.36569" lon="9.23273">
        <ele>2.06</ele>
        <time>2017-10-11T13:48:24Z</time>
      </trkpt>
      <trkpt lat="41.36594" lon="9.23281">
        <ele>1.58</ele>
        <time>2017-10-11T13:48:45Z</time>
      </trkpt>
      <trkpt lat="41.36613" lon="9.2329">
        <ele>1.1</ele>
        <time>2017-10-11T13:49:05Z</time>
      </trkpt>
      <trkpt lat="41.36631" lon="9.233">
        <ele>0.14</ele>
        <time>2017-10-11T13:49:27Z</time>
      </trkpt>
      <trkpt lat="41.36656" lon="9.23307">
        <ele>1.1</ele>
        <time>2017-10-11T13:49:52Z</time>
      </trkpt>
      <trkpt lat="41.3668" lon="9.23319">
        <ele>1.58</ele>
        <time>2017-10-11T13:50:17Z</time>
      </trkpt>
      <trkpt lat="41.36704" lon="9.23329">
        <ele>1.1</ele>
        <time>2017-10-11T13:50:39Z</time>
      </trkpt>
      <trkpt lat="41.36726" lon="9.23343">
        <ele>1.58</ele>
        <time>2017-10-11T13:51:02Z</time>
      </trkpt>
      <trkpt lat="41.36747" lon="9.23352">
        <ele>1.58</ele>
        <time>2017-10-11T13:51:24Z</time>
      </trkpt>
      <trkpt lat="41.3677" lon="9.23362">
        <ele>1.58</ele>
        <time>2017-10-11T13:51:45Z</time>
      </trkpt>
      <trkpt lat="41.36788" lon="9.23375">
        <ele>0.62</ele>
        <time>2017-10-11T13:52:04Z</time>
      </trkpt>
      <trkpt lat="41.36814" lon="9.23387">
        <ele>1.1</ele>
        <time>2017-10-11T13:52:30Z</time>
      </trkpt>
      <trkpt lat="41.3684" lon="9.23402">
        <ele>1.1</ele>
        <time>2017-10-11T13:52:54Z</time>
      </trkpt>
      <trkpt lat="41.36862" lon="9.23414">
        <ele>1.58</ele>
        <time>2017-10-11T13:53:14Z</time>
      </trkpt>
      <trkpt lat="41.36891" lon="9.23427">
        <ele>1.1</ele>
        <time>2017-10-11T13:53:36Z</time>
      </trkpt>
      <trkpt lat="41.36919" lon="9.23442">
        <ele>1.1</ele>
        <time>2017-10-11T13:53:56Z</time>
      </trkpt>
      <trkpt lat="41.36949" lon="9.23457">
        <ele>0.14</ele>
        <time>2017-10-11T13:54:18Z</time>
      </trkpt>
      <trkpt lat="41.36976" lon="9.2347">
        <ele>0.14</ele>
        <time>2017-10-11T13:54:36Z</time>
      </trkpt>
      <trkpt lat="41.37004" lon="9.23483">
        <ele>0.62</ele>
        <time>2017-10-11T13:54:54Z</time>
      </trkpt>
      <trkpt lat="41.3704" lon="9.23499">
        <ele>1.1</ele>
        <time>2017-10-11T13:55:16Z</time>
      </trkpt>
      <trkpt lat="41.37085" lon="9.23518">
        <ele>0.62</ele>
        <time>2017-10-11T13:55:42Z</time>
      </trkpt>
      <trkpt lat="41.37126" lon="9.23535">
        <ele>-0.34</ele>
        <time>2017-10-11T13:56:06Z</time>
      </trkpt>
      <trkpt lat="41.37169" lon="9.23554">
        <ele>-1.3</ele>
        <time>2017-10-11T13:56:32Z</time>
      </trkpt>
      <trkpt lat="41.37206" lon="9.2357">
        <ele>-0.34</ele>
        <time>2017-10-11T13:56:55Z</time>
      </trkpt>
      <trkpt lat="41.37241" lon="9.23585">
        <ele>-0.34</ele>
        <time>2017-10-11T13:57:19Z</time>
      </trkpt>
      <trkpt lat="41.37283" lon="9.23603">
        <ele>0.14</ele>
        <time>2017-10-11T13:57:45Z</time>
      </trkpt>
      <trkpt lat="41.37324" lon="9.23618">
        <ele>0.62</ele>
        <time>2017-10-11T13:58:09Z</time>
      </trkpt>
      <trkpt lat="41.37365" lon="9.23631">
        <ele>-0.34</ele>
        <time>2017-10-11T13:58:33Z</time>
      </trkpt>
      <trkpt lat="41.37409" lon="9.23644">
        <ele>0.14</ele>
        <time>2017-10-11T13:59:02Z</time>
      </trkpt>
      <trkpt lat="41.37443" lon="9.23654">
        <ele>0.14</ele>
        <time>2017-10-11T13:59:26Z</time>
      </trkpt>
      <trkpt lat="41.37479" lon="9.23662">
        <ele>0.62</ele>
        <time>2017-10-11T13:59:49Z</time>
      </trkpt>
      <trkpt lat="41.37526" lon="9.23675">
        <ele>0.62</ele>
        <time>2017-10-11T14:00:19Z</time>
      </trkpt>
      <trkpt lat="41.3757" lon="9.23682">
        <ele>0.14</ele>
        <time>2017-10-11T14:00:45Z</time>
      </trkpt>
      <trkpt lat="41.37612" lon="9.23693">
        <ele>0.14</ele>
        <time>2017-10-11T14:01:10Z</time>
      </trkpt>
      <trkpt lat="41.37651" lon="9.23697">
        <ele>0.14</ele>
        <time>2017-10-11T14:01:33Z</time>
      </trkpt>
      <trkpt lat="41.37685" lon="9.23704">
        <ele>0.62</ele>
        <time>2017-10-11T14:02:00Z</time>
      </trkpt>
      <trkpt lat="41.37712" lon="9.23707">
        <ele>0.62</ele>
        <time>2017-10-11T14:02:24Z</time>
      </trkpt>
      <trkpt lat="41.37743" lon="9.23711">
        <ele>0.62</ele>
        <time>2017-10-11T14:02:54Z</time>
      </trkpt>
      <trkpt lat="41.37777" lon="9.23711">
        <ele>0.62</ele>
        <time>2017-10-11T14:03:23Z</time>
      </trkpt>
      <trkpt lat="41.37816" lon="9.23717">
        <ele>1.1</ele>
        <time>2017-10-11T14:03:52Z</time>
      </trkpt>
      <trkpt lat="41.37851" lon="9.23725">
        <ele>0.62</ele>
        <time>2017-10-11T14:04:19Z</time>
      </trkpt>
      <trkpt lat="41.37884" lon="9.2375">
        <ele>1.1</ele>
        <time>2017-10-11T14:04:50Z</time>
      </trkpt>
      <trkpt lat="41.37904" lon="9.23771">
        <ele>1.1</ele>
        <time>2017-10-11T14:05:16Z</time>
      </trkpt>
      <trkpt lat="41.37922" lon="9.23787">
        <ele>1.58</ele>
        <time>2017-10-11T14:05:42Z</time>
      </trkpt>
      <trkpt lat="41.37936" lon="9.23803">
        <ele>1.58</ele>
        <time>2017-10-11T14:06:06Z</time>
      </trkpt>
      <trkpt lat="41.37954" lon="9.23819">
        <ele>1.1</ele>
        <time>2017-10-11T14:06:33Z</time>
      </trkpt>
      <trkpt lat="41.37973" lon="9.23836">
        <ele>1.58</ele>
        <time>2017-10-11T14:07:02Z</time>
      </trkpt>
      <trkpt lat="41.37994" lon="9.23854">
        <ele>1.58</ele>
        <time>2017-10-11T14:07:33Z</time>
      </trkpt>
      <trkpt lat="41.38011" lon="9.23877">
        <ele>2.06</ele>
        <time>2017-10-11T14:08:05Z</time>
      </trkpt>
      <trkpt lat="41.38024" lon="9.23896">
        <ele>1.58</ele>
        <time>2017-10-11T14:08:27Z</time>
      </trkpt>
      <trkpt lat="41.38038" lon="9.23923">
        <ele>1.1</ele>
        <time>2017-10-11T14:08:50Z</time>
      </trkpt>
      <trkpt lat="41.38053" lon="9.23952">
        <ele>1.58</ele>
        <time>2017-10-11T14:09:16Z</time>
      </trkpt>
      <trkpt lat="41.38069" lon="9.23986">
        <ele>1.1</ele>
        <time>2017-10-11T14:09:44Z</time>
      </trkpt>
      <trkpt lat="41.38083" lon="9.24016">
        <ele>0.14</ele>
        <time>2017-10-11T14:10:08Z</time>
      </trkpt>
      <trkpt lat="41.381" lon="9.24048">
        <ele>1.1</ele>
        <time>2017-10-11T14:10:33Z</time>
      </trkpt>
      <trkpt lat="41.38117" lon="9.24078">
        <ele>1.1</ele>
        <time>2017-10-11T14:10:58Z</time>
      </trkpt>
      <trkpt lat="41.38131" lon="9.24106">
        <ele>1.1</ele>
        <time>2017-10-11T14:11:22Z</time>
      </trkpt>
      <trkpt lat="41.38145" lon="9.24133">
        <ele>1.58</ele>
        <time>2017-10-11T14:11:44Z</time>
      </trkpt>
      <trkpt lat="41.38163" lon="9.24165">
        <ele>2.54</ele>
        <time>2017-10-11T14:12:11Z</time>
      </trkpt>
      <trkpt lat="41.38182" lon="9.24187">
        <ele>3.5</ele>
        <time>2017-10-11T14:12:31Z</time>
      </trkpt>
      <trkpt lat="41.38207" lon="9.24215">
        <ele>3.98</ele>
        <time>2017-10-11T14:12:56Z</time>
      </trkpt>
      <trkpt lat="41.38233" lon="9.2425">
        <ele>3.5</ele>
        <time>2017-10-11T14:13:24Z</time>
      </trkpt>
      <trkpt lat="41.38261" lon="9.24286">
        <ele>3.98</ele>
        <time>2017-10-11T14:13:53Z</time>
      </trkpt>
      <trkpt lat="41.38277" lon="9.24317">
        <ele>1.58</ele>
        <time>2017-10-11T14:14:16Z</time>
      </trkpt>
      <trkpt lat="41.38299" lon="9.24354">
        <ele>2.54</ele>
        <time>2017-10-11T14:14:45Z</time>
      </trkpt>
      <trkpt lat="41.38315" lon="9.24387">
        <ele>0.62</ele>
        <time>2017-10-11T14:15:10Z</time>
      </trkpt>
      <trkpt lat="41.38336" lon="9.24425">
        <ele>1.1</ele>
        <time>2017-10-11T14:15:38Z</time>
      </trkpt>
      <trkpt lat="41.38356" lon="9.24469">
        <ele>0.14</ele>
        <time>2017-10-11T14:16:09Z</time>
      </trkpt>
      <trkpt lat="41.38374" lon="9.2451">
        <ele>-0.34</ele>
        <time>2017-10-11T14:16:38Z</time>
      </trkpt>
      <trkpt lat="41.38391" lon="9.24542">
        <ele>0.62</ele>
        <time>2017-10-11T14:17:02Z</time>
      </trkpt>
      <trkpt lat="41.38412" lon="9.24587">
        <ele>0.62</ele>
        <time>2017-10-11T14:17:30Z</time>
      </trkpt>
      <trkpt lat="41.38438" lon="9.24645">
        <ele>2.06</ele>
        <time>2017-10-11T14:18:01Z</time>
      </trkpt>
      <trkpt lat="41.38457" lon="9.24698">
        <ele>2.54</ele>
        <time>2017-10-11T14:18:27Z</time>
      </trkpt>
      <trkpt lat="41.3848" lon="9.24753">
        <ele>2.54</ele>
        <time>2017-10-11T14:18:55Z</time>
      </trkpt>
      <trkpt lat="41.3851" lon="9.24799">
        <ele>2.54</ele>
        <time>2017-10-11T14:19:22Z</time>
      </trkpt>
      <trkpt lat="41.38538" lon="9.24842">
        <ele>2.06</ele>
        <time>2017-10-11T14:19:47Z</time>
      </trkpt>
      <trkpt lat="41.38581" lon="9.24891">
        <ele>2.54</ele>
        <time>2017-10-11T14:20:19Z</time>
      </trkpt>
      <trkpt lat="41.38615" lon="9.24934">
        <ele>1.58</ele>
        <time>2017-10-11T14:20:45Z</time>
      </trkpt>
      <trkpt lat="41.38657" lon="9.24987">
        <ele>1.1</ele>
        <time>2017-10-11T14:21:17Z</time>
      </trkpt>
      <trkpt lat="41.38694" lon="9.25035">
        <ele>1.58</ele>
        <time>2017-10-11T14:21:46Z</time>
      </trkpt>
      <trkpt lat="41.3873" lon="9.25081">
        <ele>2.54</ele>
        <time>2017-10-11T14:22:12Z</time>
      </trkpt>
      <trkpt lat="41.38775" lon="9.25137">
        <ele>3.02</ele>
        <time>2017-10-11T14:22:42Z</time>
      </trkpt>
      <trkpt lat="41.3882" lon="9.25192">
        <ele>2.54</ele>
        <time>2017-10-11T14:23:11Z</time>
      </trkpt>
      <trkpt lat="41.38868" lon="9.25252">
        <ele>1.58</ele>
        <time>2017-10-11T14:23:42Z</time>
      </trkpt>
      <trkpt lat="41.38915" lon="9.25309">
        <ele>1.1</ele>
        <time>2017-10-11T14:24:12Z</time>
      </trkpt>
      <trkpt lat="41.38965" lon="9.25373">
        <ele>2.54</ele>
        <time>2017-10-11T14:24:44Z</time>
      </trkpt>
      <trkpt lat="41.39009" lon="9.25426">
        <ele>2.54</ele>
        <time>2017-10-11T14:25:11Z</time>
      </trkpt>
      <trkpt lat="41.39061" lon="9.25496">
        <ele>3.02</ele>
        <time>2017-10-11T14:25:42Z</time>
      </trkpt>
      <trkpt lat="41.39113" lon="9.25565">
        <ele>2.54</ele>
        <time>2017-10-11T14:26:12Z</time>
      </trkpt>
      <trkpt lat="41.39159" lon="9.25624">
        <ele>2.54</ele>
        <time>2017-10-11T14:26:38Z</time>
      </trkpt>
      <trkpt lat="41.39208" lon="9.2568">
        <ele>1.1</ele>
        <time>2017-10-11T14:27:05Z</time>
      </trkpt>
      <trkpt lat="41.3927" lon="9.25753">
        <ele>1.58</ele>
        <time>2017-10-11T14:27:39Z</time>
      </trkpt>
      <trkpt lat="41.39329" lon="9.25833">
        <ele>1.1</ele>
        <time>2017-10-11T14:28:15Z</time>
      </trkpt>
      <trkpt lat="41.39363" lon="9.25884">
        <ele>2.06</ele>
        <time>2017-10-11T14:28:37Z</time>
      </trkpt>
      <trkpt lat="41.39409" lon="9.25958">
        <ele>0.62</ele>
        <time>2017-10-11T14:29:08Z</time>
      </trkpt>
      <trkpt lat="41.39447" lon="9.26019">
        <ele>1.58</ele>
        <time>2017-10-11T14:29:33Z</time>
      </trkpt>
      <trkpt lat="41.3949" lon="9.26086">
        <ele>0.62</ele>
        <time>2017-10-11T14:30:01Z</time>
      </trkpt>
      <trkpt lat="41.39535" lon="9.26155">
        <ele>0.62</ele>
        <time>2017-10-11T14:30:30Z</time>
      </trkpt>
      <trkpt lat="41.39575" lon="9.26218">
        <ele>0.62</ele>
        <time>2017-10-11T14:30:57Z</time>
      </trkpt>
      <trkpt lat="41.39616" lon="9.26282">
        <ele>-0.34</ele>
        <time>2017-10-11T14:31:24Z</time>
      </trkpt>
      <trkpt lat="41.39654" lon="9.26341">
        <ele>0.14</ele>
        <time>2017-10-11T14:31:49Z</time>
      </trkpt>
      <trkpt lat="41.39692" lon="9.26399">
        <ele>-0.34</ele>
        <time>2017-10-11T14:32:14Z</time>
      </trkpt>
      <trkpt lat="41.39736" lon="9.26467">
        <ele>-1.3</ele>
        <time>2017-10-11T14:32:43Z</time>
      </trkpt>
      <trkpt lat="41.39774" lon="9.26524">
        <ele>-0.82</ele>
        <time>2017-10-11T14:33:07Z</time>
      </trkpt>
      <trkpt lat="41.39804" lon="9.26571">
        <ele>-0.34</ele>
        <time>2017-10-11T14:33:27Z</time>
      </trkpt>
      <trkpt lat="41.39839" lon="9.26626">
        <ele>0.14</ele>
        <time>2017-10-11T14:33:52Z</time>
      </trkpt>
      <trkpt lat="41.39892" lon="9.26705">
        <ele>0.62</ele>
        <time>2017-10-11T14:34:27Z</time>
      </trkpt>
      <trkpt lat="41.39941" lon="9.26765">
        <ele>2.54</ele>
        <time>2017-10-11T14:34:55Z</time>
      </trkpt>
      <trkpt lat="41.39995" lon="9.26819">
        <ele>1.58</ele>
        <time>2017-10-11T14:35:23Z</time>
      </trkpt>
      <trkpt lat="41.40048" lon="9.26876">
        <ele>0.14</ele>
        <time>2017-10-11T14:35:51Z</time>
      </trkpt>
      <trkpt lat="41.40103" lon="9.26933">
        <ele>0.14</ele>
        <time>2017-10-11T14:36:19Z</time>
      </trkpt>
      <trkpt lat="41.40146" lon="9.26974">
        <ele>2.54</ele>
        <time>2017-10-11T14:36:44Z</time>
      </trkpt>
      <trkpt lat="41.4018" lon="9.26999">
        <ele>2.54</ele>
        <time>2017-10-11T14:37:08Z</time>
      </trkpt>
      <trkpt lat="41.4022" lon="9.2702">
        <ele>1.58</ele>
        <time>2017-10-11T14:37:34Z</time>
      </trkpt>
      <trkpt lat="41.4025" lon="9.27036">
        <ele>1.58</ele>
        <time>2017-10-11T14:37:53Z</time>
      </trkpt>
      <trkpt lat="41.40287" lon="9.27056">
        <ele>0.62</ele>
        <time>2017-10-11T14:38:16Z</time>
      </trkpt>
      <trkpt lat="41.40327" lon="9.27078">
        <ele>-0.34</ele>
        <time>2017-10-11T14:38:42Z</time>
      </trkpt>
      <trkpt lat="41.40369" lon="9.27099">
        <ele>-0.34</ele>
        <time>2017-10-11T14:39:11Z</time>
      </trkpt>
      <trkpt lat="41.40392" lon="9.27111">
        <ele>-0.82</ele>
        <time>2017-10-11T14:39:27Z</time>
      </trkpt>
      <trkpt lat="41.40428" lon="9.2713">
        <ele>-1.3</ele>
        <time>2017-10-11T14:39:54Z</time>
      </trkpt>
      <trkpt lat="41.40467" lon="9.27149">
        <ele>-0.34</ele>
        <time>2017-10-11T14:40:23Z</time>
      </trkpt>
      <trkpt lat="41.40511" lon="9.27168">
        <ele>-0.34</ele>
        <time>2017-10-11T14:40:53Z</time>
      </trkpt>
      <trkpt lat="41.40557" lon="9.27187">
        <ele>-0.34</ele>
        <time>2017-10-11T14:41:24Z</time>
      </trkpt>
      <trkpt lat="41.40599" lon="9.27205">
        <ele>0.14</ele>
        <time>2017-10-11T14:41:49Z</time>
      </trkpt>
      <trkpt lat="41.40651" lon="9.27229">
        <ele>-0.82</ele>
        <time>2017-10-11T14:42:22Z</time>
      </trkpt>
      <trkpt lat="41.40703" lon="9.27251">
        <ele>-0.34</ele>
        <time>2017-10-11T14:42:55Z</time>
      </trkpt>
      <trkpt lat="41.40753" lon="9.27273">
        <ele>-0.34</ele>
        <time>2017-10-11T14:43:25Z</time>
      </trkpt>
      <trkpt lat="41.40807" lon="9.27298">
        <ele>-0.34</ele>
        <time>2017-10-11T14:43:58Z</time>
      </trkpt>
      <trkpt lat="41.4085" lon="9.27317">
        <ele>-0.34</ele>
        <time>2017-10-11T14:44:25Z</time>
      </trkpt>
      <trkpt lat="41.40893" lon="9.27335">
        <ele>-0.34</ele>
        <time>2017-10-11T14:44:53Z</time>
      </trkpt>
      <trkpt lat="41.40947" lon="9.27354">
        <ele>-1.3</ele>
        <time>2017-10-11T14:45:25Z</time>
      </trkpt>
      <trkpt lat="41.41001" lon="9.27371">
        <ele>-1.3</ele>
        <time>2017-10-11T14:45:56Z</time>
      </trkpt>
      <trkpt lat="41.41049" lon="9.27387">
        <ele>-1.3</ele>
        <time>2017-10-11T14:46:24Z</time>
      </trkpt>
      <trkpt lat="41.41102" lon="9.27403">
        <ele>-1.3</ele>
        <time>2017-10-11T14:46:55Z</time>
      </trkpt>
      <trkpt lat="41.41153" lon="9.2742">
        <ele>-1.3</ele>
        <time>2017-10-11T14:47:22Z</time>
      </trkpt>
      <trkpt lat="41.4121" lon="9.27439">
        <ele>-2.27</ele>
        <time>2017-10-11T14:47:53Z</time>
      </trkpt>
      <trkpt lat="41.41265" lon="9.27458">
        <ele>-1.79</ele>
        <time>2017-10-11T14:48:24Z</time>
      </trkpt>
      <trkpt lat="41.41308" lon="9.2747">
        <ele>-1.79</ele>
        <time>2017-10-11T14:48:50Z</time>
      </trkpt>
      <trkpt lat="41.41351" lon="9.27483">
        <ele>-1.79</ele>
        <time>2017-10-11T14:49:14Z</time>
      </trkpt>
      <trkpt lat="41.4139" lon="9.27495">
        <ele>-1.3</ele>
        <time>2017-10-11T14:49:37Z</time>
      </trkpt>
      <trkpt lat="41.41434" lon="9.27507">
        <ele>-0.34</ele>
        <time>2017-10-11T14:50:03Z</time>
      </trkpt>
      <trkpt lat="41.41481" lon="9.27522">
        <ele>-0.34</ele>
        <time>2017-10-11T14:50:30Z</time>
      </trkpt>
      <trkpt lat="41.41533" lon="9.2754">
        <ele>0.62</ele>
        <time>2017-10-11T14:50:59Z</time>
      </trkpt>
      <trkpt lat="41.41581" lon="9.27555">
        <ele>1.1</ele>
        <time>2017-10-11T14:51:26Z</time>
      </trkpt>
      <trkpt lat="41.41634" lon="9.2757">
        <ele>1.1</ele>
        <time>2017-10-11T14:51:55Z</time>
      </trkpt>
      <trkpt lat="41.41677" lon="9.27583">
        <ele>1.1</ele>
        <time>2017-10-11T14:52:19Z</time>
      </trkpt>
      <trkpt lat="41.41725" lon="9.276">
        <ele>0.62</ele>
        <time>2017-10-11T14:52:47Z</time>
      </trkpt>
      <trkpt lat="41.41776" lon="9.27614">
        <ele>1.1</ele>
        <time>2017-10-11T14:53:17Z</time>
      </trkpt>
      <trkpt lat="41.41826" lon="9.2763">
        <ele>1.1</ele>
        <time>2017-10-11T14:53:43Z</time>
      </trkpt>
      <trkpt lat="41.41873" lon="9.27644">
        <ele>0.62</ele>
        <time>2017-10-11T14:54:08Z</time>
      </trkpt>
      <trkpt lat="41.41915" lon="9.27656">
        <ele>0.14</ele>
        <time>2017-10-11T14:54:31Z</time>
      </trkpt>
      <trkpt lat="41.41961" lon="9.27666">
        <ele>0.62</ele>
        <time>2017-10-11T14:54:56Z</time>
      </trkpt>
      <trkpt lat="41.42002" lon="9.27675">
        <ele>0.62</ele>
        <time>2017-10-11T14:55:19Z</time>
      </trkpt>
      <trkpt lat="41.42045" lon="9.27685">
        <ele>0.62</ele>
        <time>2017-10-11T14:55:44Z</time>
      </trkpt>
      <trkpt lat="41.42085" lon="9.27694">
        <ele>1.1</ele>
        <time>2017-10-11T14:56:08Z</time>
      </trkpt>
      <trkpt lat="41.42125" lon="9.27701">
        <ele>0.62</ele>
        <time>2017-10-11T14:56:30Z</time>
      </trkpt>
      <trkpt lat="41.42168" lon="9.2771">
        <ele>1.1</ele>
        <time>2017-10-11T14:56:53Z</time>
      </trkpt>
      <trkpt lat="41.42211" lon="9.27721">
        <ele>0.62</ele>
        <time>2017-10-11T14:57:15Z</time>
      </trkpt>
      <trkpt lat="41.42249" lon="9.27729">
        <ele>0.14</ele>
        <time>2017-10-11T14:57:37Z</time>
      </trkpt>
      <trkpt lat="41.42299" lon="9.27738">
        <ele>0.14</ele>
        <time>2017-10-11T14:58:05Z</time>
      </trkpt>
      <trkpt lat="41.42353" lon="9.2775">
        <ele>0.62</ele>
        <time>2017-10-11T14:58:32Z</time>
      </trkpt>
      <trkpt lat="41.42412" lon="9.27765">
        <ele>1.1</ele>
        <time>2017-10-11T14:59:02Z</time>
      </trkpt>
      <trkpt lat="41.42458" lon="9.27774">
        <ele>1.1</ele>
        <time>2017-10-11T14:59:27Z</time>
      </trkpt>
      <trkpt lat="41.42508" lon="9.27785">
        <ele>1.58</ele>
        <time>2017-10-11T14:59:56Z</time>
      </trkpt>
      <trkpt lat="41.42558" lon="9.27796">
        <ele>1.58</ele>
        <time>2017-10-11T15:00:26Z</time>
      </trkpt>
      <trkpt lat="41.42606" lon="9.27805">
        <ele>1.58</ele>
        <time>2017-10-11T15:00:53Z</time>
      </trkpt>
      <trkpt lat="41.42651" lon="9.27814">
        <ele>1.1</ele>
        <time>2017-10-11T15:01:18Z</time>
      </trkpt>
      <trkpt lat="41.42701" lon="9.27825">
        <ele>1.58</ele>
        <time>2017-10-11T15:01:46Z</time>
      </trkpt>
      <trkpt lat="41.42751" lon="9.27838">
        <ele>2.06</ele>
        <time>2017-10-11T15:02:14Z</time>
      </trkpt>
      <trkpt lat="41.42795" lon="9.27847">
        <ele>2.54</ele>
        <time>2017-10-11T15:02:39Z</time>
      </trkpt>
      <trkpt lat="41.42844" lon="9.27856">
        <ele>2.06</ele>
        <time>2017-10-11T15:03:07Z</time>
      </trkpt>
      <trkpt lat="41.42882" lon="9.27865">
        <ele>2.06</ele>
        <time>2017-10-11T15:03:31Z</time>
      </trkpt>
      <trkpt lat="41.42924" lon="9.27872">
        <ele>1.1</ele>
        <time>2017-10-11T15:03:57Z</time>
      </trkpt>
      <trkpt lat="41.42973" lon="9.27883">
        <ele>0.62</ele>
        <time>2017-10-11T15:04:27Z</time>
      </trkpt>
      <trkpt lat="41.43015" lon="9.27892">
        <ele>0.62</ele>
        <time>2017-10-11T15:04:52Z</time>
      </trkpt>
      <trkpt lat="41.43063" lon="9.27902">
        <ele>0.62</ele>
        <time>2017-10-11T15:05:20Z</time>
      </trkpt>
      <trkpt lat="41.43106" lon="9.27911">
        <ele>0.62</ele>
        <time>2017-10-11T15:05:45Z</time>
      </trkpt>
      <trkpt lat="41.43143" lon="9.27918">
        <ele>-0.34</ele>
        <time>2017-10-11T15:06:08Z</time>
      </trkpt>
      <trkpt lat="41.43186" lon="9.27927">
        <ele>-0.82</ele>
        <time>2017-10-11T15:06:37Z</time>
      </trkpt>
      <trkpt lat="41.4322" lon="9.27934">
        <ele>0.62</ele>
        <time>2017-10-11T15:07:01Z</time>
      </trkpt>
      <trkpt lat="41.43253" lon="9.27939">
        <ele>1.1</ele>
        <time>2017-10-11T15:07:24Z</time>
      </trkpt>
      <trkpt lat="41.43288" lon="9.27947">
        <ele>0.14</ele>
        <time>2017-10-11T15:07:46Z</time>
      </trkpt>
      <trkpt lat="41.43329" lon="9.27955">
        <ele>0.62</ele>
        <time>2017-10-11T15:08:12Z</time>
      </trkpt>
      <trkpt lat="41.43372" lon="9.27963">
        <ele>0.14</ele>
        <time>2017-10-11T15:08:40Z</time>
      </trkpt>
      <trkpt lat="41.43415" lon="9.27971">
        <ele>2.06</ele>
        <time>2017-10-11T15:09:09Z</time>
      </trkpt>
      <trkpt lat="41.43467" lon="9.27983">
        <ele>2.54</ele>
        <time>2017-10-11T15:09:39Z</time>
      </trkpt>
      <trkpt lat="41.43515" lon="9.27994">
        <ele>2.54</ele>
        <time>2017-10-11T15:10:04Z</time>
      </trkpt>
      <trkpt lat="41.43565" lon="9.28004">
        <ele>3.5</ele>
        <time>2017-10-11T15:10:31Z</time>
      </trkpt>
      <trkpt lat="41.43615" lon="9.28016">
        <ele>3.5</ele>
        <time>2017-10-11T15:10:58Z</time>
      </trkpt>
      <trkpt lat="41.43662" lon="9.28027">
        <ele>2.54</ele>
        <time>2017-10-11T15:11:23Z</time>
      </trkpt>
      <trkpt lat="41.43716" lon="9.28037">
        <ele>0.14</ele>
        <time>2017-10-11T15:11:53Z</time>
      </trkpt>
      <trkpt lat="41.43767" lon="9.28048">
        <ele>-0.34</ele>
        <time>2017-10-11T15:12:21Z</time>
      </trkpt>
      <trkpt lat="41.4382" lon="9.28059">
        <ele>-0.82</ele>
        <time>2017-10-11T15:12:49Z</time>
      </trkpt>
      <trkpt lat="41.43875" lon="9.28071">
        <ele>-0.34</ele>
        <time>2017-10-11T15:13:20Z</time>
      </trkpt>
      <trkpt lat="41.43927" lon="9.28083">
        <ele>-0.34</ele>
        <time>2017-10-11T15:13:51Z</time>
      </trkpt>
      <trkpt lat="41.43975" lon="9.28093">
        <ele>0.14</ele>
        <time>2017-10-11T15:14:20Z</time>
      </trkpt>
      <trkpt lat="41.44017" lon="9.28101">
        <ele>-0.34</ele>
        <time>2017-10-11T15:14:45Z</time>
      </trkpt>
      <trkpt lat="41.44073" lon="9.28112">
        <ele>-0.34</ele>
        <time>2017-10-11T15:15:18Z</time>
      </trkpt>
      <trkpt lat="41.44118" lon="9.28122">
        <ele>-0.82</ele>
        <time>2017-10-11T15:15:45Z</time>
      </trkpt>
      <trkpt lat="41.44174" lon="9.28133">
        <ele>-0.34</ele>
        <time>2017-10-11T15:16:19Z</time>
      </trkpt>
      <trkpt lat="41.44219" lon="9.28142">
        <ele>-0.34</ele>
        <time>2017-10-11T15:16:47Z</time>
      </trkpt>
      <trkpt lat="41.44276" lon="9.28153">
        <ele>0.62</ele>
        <time>2017-10-11T15:17:19Z</time>
      </trkpt>
      <trkpt lat="41.44332" lon="9.28166">
        <ele>0.62</ele>
        <time>2017-10-11T15:17:51Z</time>
      </trkpt>
      <trkpt lat="41.44378" lon="9.28173">
        <ele>1.1</ele>
        <time>2017-10-11T15:18:19Z</time>
      </trkpt>
      <trkpt lat="41.44425" lon="9.28181">
        <ele>1.58</ele>
        <time>2017-10-11T15:18:48Z</time>
      </trkpt>
      <trkpt lat="41.44473" lon="9.2819">
        <ele>1.58</ele>
        <time>2017-10-11T15:19:17Z</time>
      </trkpt>
      <trkpt lat="41.44509" lon="9.28199">
        <ele>1.58</ele>
        <time>2017-10-11T15:19:40Z</time>
      </trkpt>
      <trkpt lat="41.44545" lon="9.28206">
        <ele>2.06</ele>
        <time>2017-10-11T15:20:05Z</time>
      </trkpt>
      <trkpt lat="41.44583" lon="9.28213">
        <ele>1.58</ele>
        <time>2017-10-11T15:20:33Z</time>
      </trkpt>
      <trkpt lat="41.44619" lon="9.28219">
        <ele>1.58</ele>
        <time>2017-10-11T15:21:01Z</time>
      </trkpt>
      <trkpt lat="41.44657" lon="9.28226">
        <ele>2.06</ele>
        <time>2017-10-11T15:21:27Z</time>
      </trkpt>
      <trkpt lat="41.44699" lon="9.28236">
        <ele>3.02</ele>
        <time>2017-10-11T15:21:56Z</time>
      </trkpt>
      <trkpt lat="41.44742" lon="9.28245">
        <ele>3.5</ele>
        <time>2017-10-11T15:22:22Z</time>
      </trkpt>
      <trkpt lat="41.44785" lon="9.28257">
        <ele>3.5</ele>
        <time>2017-10-11T15:22:48Z</time>
      </trkpt>
      <trkpt lat="41.44826" lon="9.28267">
        <ele>2.06</ele>
        <time>2017-10-11T15:23:12Z</time>
      </trkpt>
      <trkpt lat="41.44869" lon="9.28276">
        <ele>1.58</ele>
        <time>2017-10-11T15:23:39Z</time>
      </trkpt>
      <trkpt lat="41.44914" lon="9.28286">
        <ele>3.02</ele>
        <time>2017-10-11T15:24:11Z</time>
      </trkpt>
      <trkpt lat="41.44948" lon="9.28293">
        <ele>2.06</ele>
        <time>2017-10-11T15:24:36Z</time>
      </trkpt>
      <trkpt lat="41.44987" lon="9.28303">
        <ele>2.06</ele>
        <time>2017-10-11T15:25:03Z</time>
      </trkpt>
      <trkpt lat="41.45029" lon="9.28312">
        <ele>1.1</ele>
        <time>2017-10-11T15:25:29Z</time>
      </trkpt>
      <trkpt lat="41.45061" lon="9.28319">
        <ele>0.62</ele>
        <time>2017-10-11T15:25:49Z</time>
      </trkpt>
      <trkpt lat="41.45099" lon="9.28329">
        <ele>1.1</ele>
        <time>2017-10-11T15:26:13Z</time>
      </trkpt>
      <trkpt lat="41.45134" lon="9.28338">
        <ele>0.14</ele>
        <time>2017-10-11T15:26:37Z</time>
      </trkpt>
      <trkpt lat="41.45175" lon="9.28346">
        <ele>1.1</ele>
        <time>2017-10-11T15:27:04Z</time>
      </trkpt>
      <trkpt lat="41.45214" lon="9.28356">
        <ele>2.06</ele>
        <time>2017-10-11T15:27:32Z</time>
      </trkpt>
      <trkpt lat="41.45254" lon="9.28364">
        <ele>2.06</ele>
        <time>2017-10-11T15:27:59Z</time>
      </trkpt>
      <trkpt lat="41.45295" lon="9.28374">
        <ele>3.02</ele>
        <time>2017-10-11T15:28:29Z</time>
      </trkpt>
      <trkpt lat="41.45336" lon="9.28383">
        <ele>2.54</ele>
        <time>2017-10-11T15:28:57Z</time>
      </trkpt>
      <trkpt lat="41.4537" lon="9.28392">
        <ele>2.54</ele>
        <time>2017-10-11T15:29:22Z</time>
      </trkpt>
      <trkpt lat="41.45412" lon="9.284">
        <ele>2.06</ele>
        <time>2017-10-11T15:29:52Z</time>
      </trkpt>
      <trkpt lat="41.45446" lon="9.28406">
        <ele>2.06</ele>
        <time>2017-10-11T15:30:19Z</time>
      </trkpt>
      <trkpt lat="41.45477" lon="9.28412">
        <ele>2.54</ele>
        <time>2017-10-11T15:30:42Z</time>
      </trkpt>
      <trkpt lat="41.45506" lon="9.28418">
        <ele>2.54</ele>
        <time>2017-10-11T15:31:03Z</time>
      </trkpt>
      <trkpt lat="41.45544" lon="9.28425">
        <ele>1.58</ele>
        <time>2017-10-11T15:31:28Z</time>
      </trkpt>
      <trkpt lat="41.45583" lon="9.28434">
        <ele>1.58</ele>
        <time>2017-10-11T15:31:54Z</time>
      </trkpt>
      <trkpt lat="41.45617" lon="9.28443">
        <ele>2.06</ele>
        <time>2017-10-11T15:32:20Z</time>
      </trkpt>
      <trkpt lat="41.45645" lon="9.28447">
        <ele>1.1</ele>
        <time>2017-10-11T15:32:42Z</time>
      </trkpt>
      <trkpt lat="41.45677" lon="9.28453">
        <ele>1.1</ele>
        <time>2017-10-11T15:33:05Z</time>
      </trkpt>
      <trkpt lat="41.4571" lon="9.2846">
        <ele>0.62</ele>
        <time>2017-10-11T15:33:28Z</time>
      </trkpt>
      <trkpt lat="41.45743" lon="9.28468">
        <ele>0.14</ele>
        <time>2017-10-11T15:33:54Z</time>
      </trkpt>
      <trkpt lat="41.45776" lon="9.28474">
        <ele>-0.34</ele>
        <time>2017-10-11T15:34:18Z</time>
      </trkpt>
      <trkpt lat="41.45809" lon="9.28481">
        <ele>0.14</ele>
        <time>2017-10-11T15:34:42Z</time>
      </trkpt>
      <trkpt lat="41.45843" lon="9.28489">
        <ele>-0.34</ele>
        <time>2017-10-11T15:35:07Z</time>
      </trkpt>
      <trkpt lat="41.4587" lon="9.28494">
        <ele>-0.82</ele>
        <time>2017-10-11T15:35:28Z</time>
      </trkpt>
      <trkpt lat="41.45896" lon="9.28499">
        <ele>-0.82</ele>
        <time>2017-10-11T15:35:47Z</time>
      </trkpt>
      <trkpt lat="41.45919" lon="9.28505">
        <ele>-0.82</ele>
        <time>2017-10-11T15:36:04Z</time>
      </trkpt>
      <trkpt lat="41.45954" lon="9.28511">
        <ele>0.14</ele>
        <time>2017-10-11T15:36:28Z</time>
      </trkpt>
      <trkpt lat="41.45988" lon="9.2852">
        <ele>0.62</ele>
        <time>2017-10-11T15:36:53Z</time>
      </trkpt>
      <trkpt lat="41.46017" lon="9.28524">
        <ele>1.1</ele>
        <time>2017-10-11T15:37:15Z</time>
      </trkpt>
      <trkpt lat="41.4605" lon="9.28531">
        <ele>0.62</ele>
        <time>2017-10-11T15:37:38Z</time>
      </trkpt>
      <trkpt lat="41.46082" lon="9.28539">
        <ele>2.54</ele>
        <time>2017-10-11T15:38:01Z</time>
      </trkpt>
      <trkpt lat="41.46128" lon="9.28548">
        <ele>1.58</ele>
        <time>2017-10-11T15:38:32Z</time>
      </trkpt>
      <trkpt lat="41.46178" lon="9.2856">
        <ele>2.06</ele>
        <time>2017-10-11T15:39:06Z</time>
      </trkpt>
      <trkpt lat="41.46215" lon="9.28566">
        <ele>2.54</ele>
        <time>2017-10-11T15:39:31Z</time>
      </trkpt>
      <trkpt lat="41.46259" lon="9.28576">
        <ele>2.06</ele>
        <time>2017-10-11T15:39:59Z</time>
      </trkpt>
      <trkpt lat="41.46298" lon="9.28586">
        <ele>1.58</ele>
        <time>2017-10-11T15:40:24Z</time>
      </trkpt>
      <trkpt lat="41.46343" lon="9.28595">
        <ele>2.54</ele>
        <time>2017-10-11T15:40:55Z</time>
      </trkpt>
      <trkpt lat="41.46382" lon="9.28602">
        <ele>3.5</ele>
        <time>2017-10-11T15:41:27Z</time>
      </trkpt>
      <trkpt lat="41.4641" lon="9.28606">
        <ele>3.5</ele>
        <time>2017-10-11T15:41:49Z</time>
      </trkpt>
      <trkpt lat="41.46446" lon="9.28614">
        <ele>2.06</ele>
        <time>2017-10-11T15:42:15Z</time>
      </trkpt>
      <trkpt lat="41.46474" lon="9.2862">
        <ele>1.58</ele>
        <time>2017-10-11T15:42:34Z</time>
      </trkpt>
      <trkpt lat="41.46507" lon="9.28628">
        <ele>1.58</ele>
        <time>2017-10-11T15:42:56Z</time>
      </trkpt>
      <trkpt lat="41.46538" lon="9.28637">
        <ele>1.1</ele>
        <time>2017-10-11T15:43:17Z</time>
      </trkpt>
      <trkpt lat="41.46576" lon="9.28644">
        <ele>1.1</ele>
        <time>2017-10-11T15:43:42Z</time>
      </trkpt>
      <trkpt lat="41.46617" lon="9.28654">
        <ele>1.58</ele>
        <time>2017-10-11T15:44:12Z</time>
      </trkpt>
      <trkpt lat="41.46646" lon="9.28659">
        <ele>2.54</ele>
        <time>2017-10-11T15:44:35Z</time>
      </trkpt>
      <trkpt lat="41.46679" lon="9.28664">
        <ele>1.58</ele>
        <time>2017-10-11T15:45:01Z</time>
      </trkpt>
      <trkpt lat="41.46709" lon="9.2867">
        <ele>1.58</ele>
        <time>2017-10-11T15:45:26Z</time>
      </trkpt>
      <trkpt lat="41.46745" lon="9.28678">
        <ele>1.58</ele>
        <time>2017-10-11T15:45:57Z</time>
      </trkpt>
      <trkpt lat="41.46772" lon="9.28683">
        <ele>2.06</ele>
        <time>2017-10-11T15:46:21Z</time>
      </trkpt>
      <trkpt lat="41.46805" lon="9.28689">
        <ele>2.06</ele>
        <time>2017-10-11T15:46:50Z</time>
      </trkpt>
      <trkpt lat="41.46843" lon="9.28696">
        <ele>2.06</ele>
        <time>2017-10-11T15:47:20Z</time>
      </trkpt>
      <trkpt lat="41.46866" lon="9.28703">
        <ele>1.1</ele>
        <time>2017-10-11T15:47:42Z</time>
      </trkpt>
      <trkpt lat="41.46884" lon="9.28707">
        <ele>1.58</ele>
        <time>2017-10-11T15:48:01Z</time>
      </trkpt>
      <trkpt lat="41.4691" lon="9.28713">
        <ele>2.06</ele>
        <time>2017-10-11T15:48:23Z</time>
      </trkpt>
      <trkpt lat="41.46962" lon="9.28728">
        <ele>2.06</ele>
        <time>2017-10-11T15:48:50Z</time>
      </trkpt>
      <trkpt lat="41.47027" lon="9.28748">
        <ele>2.06</ele>
        <time>2017-10-11T15:49:18Z</time>
      </trkpt>
      <trkpt lat="41.47102" lon="9.28769">
        <ele>1.58</ele>
        <time>2017-10-11T15:49:49Z</time>
      </trkpt>
      <trkpt lat="41.4716" lon="9.28787">
        <ele>2.06</ele>
        <time>2017-10-11T15:50:14Z</time>
      </trkpt>
      <trkpt lat="41.4722" lon="9.28806">
        <ele>1.58</ele>
        <time>2017-10-11T15:50:39Z</time>
      </trkpt>
      <trkpt lat="41.4728" lon="9.28822">
        <ele>0.62</ele>
        <time>2017-10-11T15:51:04Z</time>
      </trkpt>
      <trkpt lat="41.47343" lon="9.28842">
        <ele>0.14</ele>
        <time>2017-10-11T15:51:30Z</time>
      </trkpt>
      <trkpt lat="41.47408" lon="9.28861">
        <ele>2.06</ele>
        <time>2017-10-11T15:51:57Z</time>
      </trkpt>
      <trkpt lat="41.47468" lon="9.28881">
        <ele>2.54</ele>
        <time>2017-10-11T15:52:22Z</time>
      </trkpt>
      <trkpt lat="41.47537" lon="9.28902">
        <ele>3.98</ele>
        <time>2017-10-11T15:52:51Z</time>
      </trkpt>
      <trkpt lat="41.47592" lon="9.2892">
        <ele>2.06</ele>
        <time>2017-10-11T15:53:14Z</time>
      </trkpt>
      <trkpt lat="41.47656" lon="9.28941">
        <ele>1.1</ele>
        <time>2017-10-11T15:53:41Z</time>
      </trkpt>
      <trkpt lat="41.47726" lon="9.28963">
        <ele>0.14</ele>
        <time>2017-10-11T15:54:10Z</time>
      </trkpt>
      <trkpt lat="41.47788" lon="9.28984">
        <ele>0.62</ele>
        <time>2017-10-11T15:54:36Z</time>
      </trkpt>
      <trkpt lat="41.4785" lon="9.29004">
        <ele>0.62</ele>
        <time>2017-10-11T15:55:02Z</time>
      </trkpt>
      <trkpt lat="41.47927" lon="9.2903">
        <ele>1.1</ele>
        <time>2017-10-11T15:55:34Z</time>
      </trkpt>
      <trkpt lat="41.47996" lon="9.29053">
        <ele>1.58</ele>
        <time>2017-10-11T15:56:03Z</time>
      </trkpt>
      <trkpt lat="41.48061" lon="9.29074">
        <ele>1.58</ele>
        <time>2017-10-11T15:56:30Z</time>
      </trkpt>
      <trkpt lat="41.48127" lon="9.29094">
        <ele>1.1</ele>
        <time>2017-10-11T15:56:57Z</time>
      </trkpt>
      <trkpt lat="41.48194" lon="9.29116">
        <ele>1.1</ele>
        <time>2017-10-11T15:57:25Z</time>
      </trkpt>
      <trkpt lat="41.48264" lon="9.29138">
        <ele>1.58</ele>
        <time>2017-10-11T15:57:54Z</time>
      </trkpt>
      <trkpt lat="41.48328" lon="9.29161">
        <ele>1.58</ele>
        <time>2017-10-11T15:58:21Z</time>
      </trkpt>
      <trkpt lat="41.48393" lon="9.29182">
        <ele>1.1</ele>
        <time>2017-10-11T15:58:48Z</time>
      </trkpt>
      <trkpt lat="41.4847" lon="9.29209">
        <ele>2.06</ele>
        <time>2017-10-11T15:59:20Z</time>
      </trkpt>
      <trkpt lat="41.48529" lon="9.29227">
        <ele>2.06</ele>
        <time>2017-10-11T15:59:44Z</time>
      </trkpt>
      <trkpt lat="41.4859" lon="9.29245">
        <ele>1.58</ele>
        <time>2017-10-11T16:00:09Z</time>
      </trkpt>
      <trkpt lat="41.48653" lon="9.29266">
        <ele>2.06</ele>
        <time>2017-10-11T16:00:35Z</time>
      </trkpt>
      <trkpt lat="41.48721" lon="9.29288">
        <ele>2.06</ele>
        <time>2017-10-11T16:01:03Z</time>
      </trkpt>
      <trkpt lat="41.48791" lon="9.29312">
        <ele>2.54</ele>
        <time>2017-10-11T16:01:32Z</time>
      </trkpt>
      <trkpt lat="41.48851" lon="9.29332">
        <ele>2.06</ele>
        <time>2017-10-11T16:01:57Z</time>
      </trkpt>
      <trkpt lat="41.48917" lon="9.29352">
        <ele>2.06</ele>
        <time>2017-10-11T16:02:24Z</time>
      </trkpt>
      <trkpt lat="41.48978" lon="9.29371">
        <ele>2.06</ele>
        <time>2017-10-11T16:02:49Z</time>
      </trkpt>
      <trkpt lat="41.49044" lon="9.29391">
        <ele>2.06</ele>
        <time>2017-10-11T16:03:16Z</time>
      </trkpt>
      <trkpt lat="41.49094" lon="9.29402">
        <ele>1.58</ele>
        <time>2017-10-11T16:03:36Z</time>
      </trkpt>
      <trkpt lat="41.49147" lon="9.29399">
        <ele>3.02</ele>
        <time>2017-10-11T16:03:57Z</time>
      </trkpt>
      <trkpt lat="41.49224" lon="9.29389">
        <ele>3.5</ele>
        <time>2017-10-11T16:04:28Z</time>
      </trkpt>
      <trkpt lat="41.493" lon="9.2938">
        <ele>3.02</ele>
        <time>2017-10-11T16:04:58Z</time>
      </trkpt>
      <trkpt lat="41.4936" lon="9.29372">
        <ele>3.02</ele>
        <time>2017-10-11T16:05:22Z</time>
      </trkpt>
      <trkpt lat="41.49426" lon="9.29363">
        <ele>3.5</ele>
        <time>2017-10-11T16:05:48Z</time>
      </trkpt>
      <trkpt lat="41.49472" lon="9.29356">
        <ele>3.02</ele>
        <time>2017-10-11T16:06:06Z</time>
      </trkpt>
      <trkpt lat="41.49536" lon="9.29348">
        <ele>3.02</ele>
        <time>2017-10-11T16:06:31Z</time>
      </trkpt>
      <trkpt lat="41.49606" lon="9.29338">
        <ele>4.46</ele>
        <time>2017-10-11T16:06:59Z</time>
      </trkpt>
      <trkpt lat="41.49668" lon="9.2933">
        <ele>4.46</ele>
        <time>2017-10-11T16:07:23Z</time>
      </trkpt>
      <trkpt lat="41.49737" lon="9.29322">
        <ele>5.42</ele>
        <time>2017-10-11T16:07:50Z</time>
      </trkpt>
      <trkpt lat="41.49813" lon="9.29313">
        <ele>5.91</ele>
        <time>2017-10-11T16:08:20Z</time>
      </trkpt>
      <trkpt lat="41.49885" lon="9.29303">
        <ele>4.94</ele>
        <time>2017-10-11T16:08:48Z</time>
      </trkpt>
      <trkpt lat="41.49963" lon="9.29285">
        <ele>4.46</ele>
        <time>2017-10-11T16:09:19Z</time>
      </trkpt>
      <trkpt lat="41.50029" lon="9.2926">
        <ele>2.54</ele>
        <time>2017-10-11T16:09:46Z</time>
      </trkpt>
      <trkpt lat="41.50092" lon="9.29239">
        <ele>3.02</ele>
        <time>2017-10-11T16:10:11Z</time>
      </trkpt>
      <trkpt lat="41.50159" lon="9.29223">
        <ele>3.02</ele>
        <time>2017-10-11T16:10:37Z</time>
      </trkpt>
      <trkpt lat="41.50225" lon="9.29209">
        <ele>3.98</ele>
        <time>2017-10-11T16:11:03Z</time>
      </trkpt>
      <trkpt lat="41.50281" lon="9.29198">
        <ele>4.46</ele>
        <time>2017-10-11T16:11:25Z</time>
      </trkpt>
      <trkpt lat="41.50344" lon="9.29176">
        <ele>3.98</ele>
        <time>2017-10-11T16:11:51Z</time>
      </trkpt>
      <trkpt lat="41.50411" lon="9.2915">
        <ele>3.02</ele>
        <time>2017-10-11T16:12:18Z</time>
      </trkpt>
      <trkpt lat="41.50481" lon="9.29126">
        <ele>3.02</ele>
        <time>2017-10-11T16:12:46Z</time>
      </trkpt>
      <trkpt lat="41.50536" lon="9.29106">
        <ele>3.02</ele>
        <time>2017-10-11T16:13:08Z</time>
      </trkpt>
      <trkpt lat="41.50599" lon="9.2909">
        <ele>3.02</ele>
        <time>2017-10-11T16:13:33Z</time>
      </trkpt>
      <trkpt lat="41.50657" lon="9.29074">
        <ele>3.02</ele>
        <time>2017-10-11T16:13:56Z</time>
      </trkpt>
      <trkpt lat="41.50718" lon="9.29058">
        <ele>2.54</ele>
        <time>2017-10-11T16:14:20Z</time>
      </trkpt>
      <trkpt lat="41.50778" lon="9.29047">
        <ele>2.06</ele>
        <time>2017-10-11T16:14:44Z</time>
      </trkpt>
      <trkpt lat="41.50847" lon="9.29035">
        <ele>2.54</ele>
        <time>2017-10-11T16:15:11Z</time>
      </trkpt>
      <trkpt lat="41.50916" lon="9.29022">
        <ele>3.02</ele>
        <time>2017-10-11T16:15:38Z</time>
      </trkpt>
      <trkpt lat="41.50978" lon="9.29013">
        <ele>2.54</ele>
        <time>2017-10-11T16:16:02Z</time>
      </trkpt>
      <trkpt lat="41.51044" lon="9.28996">
        <ele>2.54</ele>
        <time>2017-10-11T16:16:28Z</time>
      </trkpt>
      <trkpt lat="41.51114" lon="9.28976">
        <ele>3.02</ele>
        <time>2017-10-11T16:16:56Z</time>
      </trkpt>
      <trkpt lat="41.51176" lon="9.28953">
        <ele>3.02</ele>
        <time>2017-10-11T16:17:21Z</time>
      </trkpt>
      <trkpt lat="41.51244" lon="9.28931">
        <ele>3.5</ele>
        <time>2017-10-11T16:17:48Z</time>
      </trkpt>
      <trkpt lat="41.51311" lon="9.28911">
        <ele>3.5</ele>
        <time>2017-10-11T16:18:15Z</time>
      </trkpt>
      <trkpt lat="41.51365" lon="9.28898">
        <ele>3.02</ele>
        <time>2017-10-11T16:18:36Z</time>
      </trkpt>
      <trkpt lat="41.51427" lon="9.28876">
        <ele>2.54</ele>
        <time>2017-10-11T16:19:01Z</time>
      </trkpt>
      <trkpt lat="41.51484" lon="9.28858">
        <ele>3.5</ele>
        <time>2017-10-11T16:19:24Z</time>
      </trkpt>
      <trkpt lat="41.51561" lon="9.2884">
        <ele>3.02</ele>
        <time>2017-10-11T16:19:55Z</time>
      </trkpt>
      <trkpt lat="41.51617" lon="9.28841">
        <ele>3.02</ele>
        <time>2017-10-11T16:20:17Z</time>
      </trkpt>
      <trkpt lat="41.51692" lon="9.28842">
        <ele>3.98</ele>
        <time>2017-10-11T16:20:47Z</time>
      </trkpt>
      <trkpt lat="41.5176" lon="9.28837">
        <ele>3.5</ele>
        <time>2017-10-11T16:21:14Z</time>
      </trkpt>
      <trkpt lat="41.5183" lon="9.28817">
        <ele>3.5</ele>
        <time>2017-10-11T16:21:42Z</time>
      </trkpt>
      <trkpt lat="41.51891" lon="9.28785">
        <ele>3.5</ele>
        <time>2017-10-11T16:22:08Z</time>
      </trkpt>
      <trkpt lat="41.51952" lon="9.28747">
        <ele>3.98</ele>
        <time>2017-10-11T16:22:35Z</time>
      </trkpt>
      <trkpt lat="41.5201" lon="9.28707">
        <ele>3.98</ele>
        <time>2017-10-11T16:23:01Z</time>
      </trkpt>
      <trkpt lat="41.52076" lon="9.28656">
        <ele>3.5</ele>
        <time>2017-10-11T16:23:31Z</time>
      </trkpt>
      <trkpt lat="41.52134" lon="9.28608">
        <ele>3.5</ele>
        <time>2017-10-11T16:23:58Z</time>
      </trkpt>
      <trkpt lat="41.52185" lon="9.28542">
        <ele>3.02</ele>
        <time>2017-10-11T16:24:26Z</time>
      </trkpt>
      <trkpt lat="41.52232" lon="9.28477">
        <ele>3.5</ele>
        <time>2017-10-11T16:24:53Z</time>
      </trkpt>
      <trkpt lat="41.52278" lon="9.28411">
        <ele>3.02</ele>
        <time>2017-10-11T16:25:20Z</time>
      </trkpt>
      <trkpt lat="41.52319" lon="9.28319">
        <ele>2.06</ele>
        <time>2017-10-11T16:25:52Z</time>
      </trkpt>
      <trkpt lat="41.52339" lon="9.28244">
        <ele>2.06</ele>
        <time>2017-10-11T16:26:17Z</time>
      </trkpt>
      <trkpt lat="41.52361" lon="9.28154">
        <ele>1.1</ele>
        <time>2017-10-11T16:26:46Z</time>
      </trkpt>
      <trkpt lat="41.52382" lon="9.28085">
        <ele>2.54</ele>
        <time>2017-10-11T16:27:09Z</time>
      </trkpt>
      <trkpt lat="41.52404" lon="9.28013">
        <ele>2.54</ele>
        <time>2017-10-11T16:27:33Z</time>
      </trkpt>
      <trkpt lat="41.52413" lon="9.27944">
        <ele>1.1</ele>
        <time>2017-10-11T16:27:55Z</time>
      </trkpt>
      <trkpt lat="41.52417" lon="9.27862">
        <ele>1.1</ele>
        <time>2017-10-11T16:28:21Z</time>
      </trkpt>
      <trkpt lat="41.52419" lon="9.27793">
        <ele>1.58</ele>
        <time>2017-10-11T16:28:45Z</time>
      </trkpt>
      <trkpt lat="41.52415" lon="9.27752">
        <ele>2.54</ele>
        <time>2017-10-11T16:29:06Z</time>
      </trkpt>
      <trkpt lat="41.52414" lon="9.27713">
        <ele>2.54</ele>
        <time>2017-10-11T16:29:32Z</time>
      </trkpt>
      <trkpt lat="41.52413" lon="9.27676">
        <ele>2.06</ele>
        <time>2017-10-11T16:30:05Z</time>
      </trkpt>
      <trkpt lat="41.52421" lon="9.27658">
        <ele>2.54</ele>
        <time>2017-10-11T16:30:33Z</time>
      </trkpt>
      <trkpt lat="41.52437" lon="9.27647">
        <ele>3.02</ele>
        <time>2017-10-11T16:31:00Z</time>
      </trkpt>
      <trkpt lat="41.52454" lon="9.27639">
        <ele>2.54</ele>
        <time>2017-10-11T16:31:28Z</time>
      </trkpt>
      <trkpt lat="41.52475" lon="9.27633">
        <ele>3.02</ele>
        <time>2017-10-11T16:31:57Z</time>
      </trkpt>
      <trkpt lat="41.52498" lon="9.27613">
        <ele>3.98</ele>
        <time>2017-10-11T16:32:27Z</time>
      </trkpt>
      <trkpt lat="41.52518" lon="9.27597">
        <ele>3.02</ele>
        <time>2017-10-11T16:32:51Z</time>
      </trkpt>
      <trkpt lat="41.52534" lon="9.27582">
        <ele>1.58</ele>
        <time>2017-10-11T16:33:17Z</time>
      </trkpt>
      <trkpt lat="41.52547" lon="9.27578">
        <ele>3.02</ele>
        <time>2017-10-11T16:33:41Z</time>
      </trkpt>
      <trkpt lat="41.52554" lon="9.27576">
        <ele>2.06</ele>
        <time>2017-10-11T16:34:08Z</time>
      </trkpt>
      <trkpt lat="41.52556" lon="9.27573">
        <ele>1.58</ele>
        <time>2017-10-11T16:34:35Z</time>
      </trkpt>
      <trkpt lat="41.52554" lon="9.27566">
        <ele>1.58</ele>
        <time>2017-10-11T16:34:59Z</time>
      </trkpt>
      <trkpt lat="41.52554" lon="9.2756">
        <ele>1.58</ele>
        <time>2017-10-11T16:35:28Z</time>
      </trkpt>
      <trkpt lat="41.52554" lon="9.27556">
        <ele>1.1</ele>
        <time>2017-10-11T16:35:53Z</time>
      </trkpt>
      <trkpt lat="41.52555" lon="9.27552">
        <ele>1.1</ele>
        <time>2017-10-11T16:36:23Z</time>
      </trkpt>
      <trkpt lat="41.52554" lon="9.27553">
        <ele>2.06</ele>
        <time>2017-10-11T16:36:50Z</time>
      </trkpt>
      <trkpt lat="41.52554" lon="9.27555">
        <ele>3.02</ele>
        <time>2017-10-11T16:37:14Z</time>
      </trkpt>
      <trkpt lat="41.52555" lon="9.27556">
        <ele>2.54</ele>
        <time>2017-10-11T16:37:37Z</time>
      </trkpt>
      <trkpt lat="41.52556" lon="9.27558">
        <ele>2.54</ele>
        <time>2017-10-11T16:38:06Z</time>
      </trkpt>
      <trkpt lat="41.52557" lon="9.27559">
        <ele>3.02</ele>
        <time>2017-10-11T16:38:33Z</time>
      </trkpt>
      <trkpt lat="41.52559" lon="9.27558">
        <ele>2.06</ele>
        <time>2017-10-11T16:38:59Z</time>
      </trkpt>
      <trkpt lat="41.52561" lon="9.27556">
        <ele>1.58</ele>
        <time>2017-10-11T16:39:31Z</time>
      </trkpt>
      <trkpt lat="41.52562" lon="9.27557">
        <ele>1.58</ele>
        <time>2017-10-11T16:39:42Z</time>
      </trkpt>
    </trkseg>
  </trk>
</gpx>